AAL137 EGLL-KLAX
Flight info
| Callsign | AAL137 |
|---|---|
| Flight time | N/A |
| Altitude | 36000 |
| Route | ULTIB T420 TNT UL28 PENIL DCT DEJEM DCT OZRAT DCT WETFI DCT REVNU/N0472F380 DCT PIKIL/M082F380 DCT 5630N02000W 5730N03000W 5830N04000W 5930N05000W DCT URTAK/N0485F400 DCT LAKES DCT 57N070W 55N080W 5230N09000W DCT KP18A DCT KU06W DCT KD87U DCT KU54O DCT NORRA J107 BLD DCT HAKMN ANJLL4 |
| Aircraft | B772/H-SDE2E3FGHIJ5LORVWXY/LB1D1 |
Departure
| Time | N/A |
|---|---|
| Airport | London Heathrow Airport (EGLL) |
Arrival
| Time | 2026-05-06 11:29 |
|---|---|
| Airport | Los Angeles International Airport (KLAX) |
| Time | Latitude | Longitude | Altitude | Speed | Heading |
|---|---|---|---|---|---|
| 2026-05-06 01:55 | 54.39181 | -9.48920 | 36103 ft | 449 kts | 282° |
| 2026-05-06 01:55 | 54.39822 | -9.54161 | 36098 ft | 449 kts | 282° |
| 2026-05-06 01:55 | 54.41099 | -9.64656 | 36098 ft | 449 kts | 282° |
| 2026-05-06 01:56 | 54.42367 | -9.75163 | 36103 ft | 449 kts | 282° |
| 2026-05-06 01:56 | 54.43626 | -9.85675 | 36104 ft | 449 kts | 282° |
| 2026-05-06 01:57 | 54.44877 | -9.96189 | 36101 ft | 450 kts | 281° |
| 2026-05-06 01:57 | 54.46202 | -10.06686 | 36094 ft | 449 kts | 286° |
| 2026-05-06 01:58 | 54.48465 | -10.16700 | 36106 ft | 449 kts | 295° |
| 2026-05-06 01:58 | 54.51559 | -10.26042 | 36094 ft | 450 kts | 300° |
| 2026-05-06 01:59 | 54.54786 | -10.35280 | 36104 ft | 450 kts | 300° |
| 2026-05-06 01:59 | 54.57993 | -10.44539 | 36115 ft | 450 kts | 300° |
| 2026-05-06 02:00 | 54.61161 | -10.53784 | 36105 ft | 450 kts | 300° |
| 2026-05-06 02:00 | 54.64352 | -10.63161 | 36106 ft | 450 kts | 300° |
| 2026-05-06 02:01 | 54.67509 | -10.72476 | 36103 ft | 449 kts | 300° |
| 2026-05-06 02:01 | 54.70638 | -10.81744 | 36106 ft | 449 kts | 300° |
| 2026-05-06 02:02 | 54.73779 | -10.91082 | 36094 ft | 449 kts | 300° |
| 2026-05-06 02:02 | 54.76913 | -11.00435 | 36120 ft | 449 kts | 300° |
| 2026-05-06 02:03 | 54.80042 | -11.09808 | 36111 ft | 450 kts | 300° |
| 2026-05-06 02:03 | 54.83168 | -11.19207 | 36106 ft | 450 kts | 300° |
| 2026-05-06 02:04 | 54.86283 | -11.28611 | 36109 ft | 449 kts | 299° |
| 2026-05-06 02:04 | 54.89388 | -11.38022 | 36109 ft | 449 kts | 299° |
| 2026-05-06 02:05 | 54.92490 | -11.47459 | 36109 ft | 449 kts | 299° |
| 2026-05-06 02:05 | 54.95581 | -11.56900 | 36109 ft | 449 kts | 299° |
| 2026-05-06 02:06 | 54.98664 | -11.66355 | 36109 ft | 449 kts | 299° |
| 2026-05-06 02:06 | 55.01743 | -11.75832 | 36104 ft | 449 kts | 299° |
| 2026-05-06 02:07 | 55.04809 | -11.85306 | 36110 ft | 449 kts | 299° |
| 2026-05-06 02:07 | 55.07867 | -11.94795 | 36108 ft | 449 kts | 299° |
| 2026-05-06 02:08 | 55.10916 | -12.04292 | 36106 ft | 448 kts | 299° |
| 2026-05-06 02:08 | 55.13958 | -12.13806 | 36106 ft | 448 kts | 299° |
| 2026-05-06 02:09 | 55.16994 | -12.23337 | 36116 ft | 448 kts | 299° |
| 2026-05-06 02:09 | 55.20019 | -12.32873 | 36109 ft | 448 kts | 299° |
| 2026-05-06 02:10 | 55.23033 | -12.42411 | 36105 ft | 448 kts | 299° |
| 2026-05-06 02:10 | 55.26038 | -12.51958 | 36108 ft | 447 kts | 299° |
| 2026-05-06 02:11 | 55.29033 | -12.61514 | 36109 ft | 447 kts | 299° |
| 2026-05-06 02:11 | 55.32022 | -12.71087 | 36109 ft | 447 kts | 299° |
| 2026-05-06 02:12 | 55.35000 | -12.80664 | 36109 ft | 447 kts | 299° |
| 2026-05-06 02:12 | 55.37971 | -12.90255 | 36106 ft | 447 kts | 300° |
| 2026-05-06 02:13 | 55.40913 | -12.99795 | 36107 ft | 446 kts | 299° |
| 2026-05-06 02:13 | 55.43867 | -13.09407 | 36106 ft | 446 kts | 299° |
| 2026-05-06 02:14 | 55.46815 | -13.19040 | 36107 ft | 446 kts | 299° |
| 2026-05-06 02:14 | 55.49751 | -13.28675 | 36109 ft | 446 kts | 299° |
| 2026-05-06 02:15 | 55.52683 | -13.38336 | 36109 ft | 446 kts | 299° |
| 2026-05-06 02:15 | 55.55606 | -13.48005 | 36109 ft | 446 kts | 299° |
| 2026-05-06 02:16 | 55.58517 | -13.57678 | 36108 ft | 445 kts | 300° |
| 2026-05-06 02:16 | 55.61408 | -13.67320 | 36103 ft | 443 kts | 300° |
| 2026-05-06 02:17 | 55.64284 | -13.76954 | 36105 ft | 442 kts | 299° |
| 2026-05-06 02:17 | 55.67146 | -13.86577 | 36106 ft | 441 kts | 299° |
| 2026-05-06 02:18 | 55.69996 | -13.96201 | 36106 ft | 441 kts | 299° |
| 2026-05-06 02:18 | 55.72844 | -14.05857 | 36107 ft | 442 kts | 299° |
| 2026-05-06 02:19 | 55.75683 | -14.15520 | 36107 ft | 442 kts | 299° |
| 2026-05-06 02:19 | 55.78515 | -14.25203 | 36104 ft | 441 kts | 299° |
| 2026-05-06 02:20 | 55.82734 | -14.39701 | 36102 ft | 439 kts | 299° |
| 2026-05-06 02:21 | 55.85530 | -14.49360 | 36101 ft | 439 kts | 299° |
| 2026-05-06 02:21 | 55.88317 | -14.59029 | 36098 ft | 439 kts | 299° |
| 2026-05-06 02:22 | 55.91096 | -14.68707 | 36102 ft | 439 kts | 299° |
| 2026-05-06 02:22 | 55.93866 | -14.78395 | 36101 ft | 439 kts | 299° |
| 2026-05-06 02:23 | 55.96631 | -14.88105 | 36078 ft | 439 kts | 299° |
| 2026-05-06 02:23 | 55.99293 | -14.97904 | 36094 ft | 439 kts | 294° |
| 2026-05-06 02:24 | 56.01076 | -15.08360 | 36100 ft | 442 kts | 285° |
| 2026-05-06 02:24 | 56.02337 | -15.19110 | 36095 ft | 442 kts | 285° |
| 2026-05-06 02:25 | 56.03596 | -15.29864 | 36098 ft | 442 kts | 285° |
| 2026-05-06 02:25 | 56.04855 | -15.40564 | 36098 ft | 442 kts | 285° |
| 2026-05-06 02:26 | 56.06120 | -15.51328 | 36097 ft | 442 kts | 285° |
| 2026-05-06 02:26 | 56.07387 | -15.62181 | 36090 ft | 442 kts | 285° |
| 2026-05-06 02:27 | 56.08625 | -15.72874 | 36096 ft | 442 kts | 285° |
| 2026-05-06 02:27 | 56.09863 | -15.83654 | 36107 ft | 442 kts | 285° |
| 2026-05-06 02:28 | 56.11090 | -15.94430 | 36093 ft | 441 kts | 285° |
| 2026-05-06 02:28 | 56.12303 | -16.05179 | 36092 ft | 440 kts | 284° |
| 2026-05-06 02:29 | 56.13506 | -16.15922 | 36074 ft | 439 kts | 284° |
| 2026-05-06 02:29 | 56.14697 | -16.26645 | 36094 ft | 438 kts | 284° |
| 2026-05-06 02:30 | 56.15879 | -16.37381 | 36096 ft | 438 kts | 284° |
| 2026-05-06 02:30 | 56.17051 | -16.48112 | 36101 ft | 439 kts | 284° |
| 2026-05-06 02:31 | 56.18216 | -16.58878 | 36101 ft | 439 kts | 284° |
| 2026-05-06 02:31 | 56.19177 | -16.67823 | 36098 ft | 440 kts | 284° |
| 2026-05-06 02:32 | 56.20327 | -16.78617 | 36101 ft | 440 kts | 284° |
| 2026-05-06 02:32 | 56.21466 | -16.89403 | 36097 ft | 440 kts | 284° |
| 2026-05-06 02:33 | 56.22596 | -17.00199 | 36105 ft | 440 kts | 284° |
| 2026-05-06 02:33 | 56.22968 | -17.03779 | 36101 ft | 439 kts | 284° |
| 2026-05-06 02:34 | 56.24821 | -17.21757 | 36105 ft | 438 kts | 284° |
| 2026-05-06 02:34 | 56.25919 | -17.32527 | 36106 ft | 437 kts | 283° |
| 2026-05-06 02:35 | 56.27005 | -17.43285 | 36106 ft | 437 kts | 283° |
| 2026-05-06 02:35 | 56.28080 | -17.54038 | 36099 ft | 437 kts | 283° |
| 2026-05-06 02:36 | 56.29149 | -17.64814 | 36106 ft | 437 kts | 283° |
| 2026-05-06 02:36 | 56.30208 | -17.75606 | 36105 ft | 438 kts | 283° |
| 2026-05-06 02:37 | 56.31259 | -17.86415 | 36106 ft | 438 kts | 283° |
| 2026-05-06 02:37 | 56.32302 | -17.97240 | 36101 ft | 439 kts | 283° |
| 2026-05-06 02:38 | 56.33335 | -18.08067 | 36122 ft | 438 kts | 283° |
| 2026-05-06 02:38 | 56.34358 | -18.18893 | 36103 ft | 437 kts | 283° |
| 2026-05-06 02:39 | 56.35367 | -18.29682 | 36100 ft | 436 kts | 283° |
| 2026-05-06 02:39 | 56.36363 | -18.40434 | 36106 ft | 435 kts | 283° |
| 2026-05-06 02:40 | 56.37349 | -18.51183 | 36106 ft | 434 kts | 283° |
| 2026-05-06 02:40 | 56.38320 | -18.61866 | 36113 ft | 434 kts | 283° |
| 2026-05-06 02:41 | 56.39288 | -18.72630 | 36090 ft | 435 kts | 283° |
| 2026-05-06 02:41 | 56.40247 | -18.83405 | 36105 ft | 435 kts | 283° |
| 2026-05-06 02:42 | 56.41198 | -18.94202 | 36109 ft | 436 kts | 282° |
| 2026-05-06 02:42 | 56.42141 | -19.05018 | 36112 ft | 436 kts | 282° |
| 2026-05-06 02:43 | 56.43075 | -19.15843 | 36113 ft | 437 kts | 282° |
| 2026-05-06 02:43 | 56.44000 | -19.26684 | 36125 ft | 436 kts | 282° |
| 2026-05-06 02:44 | 56.44913 | -19.37503 | 36093 ft | 434 kts | 282° |
| 2026-05-06 02:44 | 56.45813 | -19.48279 | 36105 ft | 433 kts | 282° |
| 2026-05-06 02:45 | 56.46704 | -19.59051 | 36114 ft | 433 kts | 282° |
| 2026-05-06 02:45 | 56.47585 | -19.69826 | 36117 ft | 433 kts | 282° |
| 2026-05-06 02:46 | 56.48457 | -19.80619 | 36112 ft | 434 kts | 282° |
| 2026-05-06 02:46 | 56.49323 | -19.91427 | 36115 ft | 434 kts | 282° |
| 2026-05-06 02:47 | 56.50275 | -20.02217 | 36110 ft | 433 kts | 287° |
| 2026-05-06 02:47 | 56.51787 | -20.12741 | 36115 ft | 432 kts | 288° |
| 2026-05-06 02:48 | 56.53305 | -20.23282 | 36114 ft | 433 kts | 288° |
| 2026-05-06 02:48 | 56.54802 | -20.33844 | 36113 ft | 433 kts | 287° |
| 2026-05-06 02:49 | 56.56280 | -20.44396 | 36110 ft | 431 kts | 287° |
| 2026-05-06 02:49 | 56.57745 | -20.54942 | 36108 ft | 430 kts | 287° |
| 2026-05-06 02:50 | 56.59188 | -20.65392 | 36107 ft | 430 kts | 287° |
| 2026-05-06 02:50 | 56.60629 | -20.75902 | 36094 ft | 429 kts | 287° |
| 2026-05-06 02:51 | 56.62063 | -20.86437 | 36109 ft | 430 kts | 287° |
| 2026-05-06 02:51 | 56.63493 | -20.97009 | 36105 ft | 432 kts | 287° |
| 2026-05-06 02:52 | 56.64918 | -21.07623 | 36103 ft | 433 kts | 287° |
| 2026-05-06 02:52 | 56.66335 | -21.18250 | 36102 ft | 433 kts | 287° |
| 2026-05-06 02:53 | 56.67743 | -21.28892 | 36107 ft | 432 kts | 286° |
| 2026-05-06 02:53 | 56.69139 | -21.39516 | 36103 ft | 431 kts | 286° |
| 2026-05-06 02:54 | 56.70520 | -21.50102 | 36096 ft | 430 kts | 286° |
| 2026-05-06 02:54 | 56.71894 | -21.60714 | 36100 ft | 431 kts | 286° |
| 2026-05-06 02:55 | 56.73263 | -21.71359 | 36109 ft | 432 kts | 286° |
| 2026-05-06 02:55 | 56.74627 | -21.82041 | 36104 ft | 433 kts | 286° |
| 2026-05-06 02:56 | 56.75983 | -21.92747 | 36100 ft | 434 kts | 286° |
| 2026-05-06 02:56 | 56.77329 | -22.03461 | 36104 ft | 434 kts | 286° |
| 2026-05-06 02:57 | 56.78667 | -22.14181 | 36078 ft | 434 kts | 285° |
| 2026-05-06 02:57 | 56.79997 | -22.24920 | 36095 ft | 434 kts | 285° |
| 2026-05-06 02:58 | 56.81316 | -22.35653 | 36105 ft | 434 kts | 285° |
| 2026-05-06 02:58 | 56.82620 | -22.46346 | 36105 ft | 434 kts | 285° |
| 2026-05-06 02:59 | 56.83932 | -22.57196 | 36101 ft | 435 kts | 285° |
| 2026-05-06 02:59 | 56.85220 | -22.67918 | 36103 ft | 435 kts | 285° |
| 2026-05-06 03:00 | 56.86506 | -22.78714 | 36107 ft | 435 kts | 285° |
| 2026-05-06 03:00 | 56.87782 | -22.89509 | 36096 ft | 435 kts | 285° |
| 2026-05-06 03:01 | 56.89050 | -23.00331 | 36115 ft | 436 kts | 285° |
| 2026-05-06 03:01 | 56.90314 | -23.11201 | 36102 ft | 437 kts | 285° |
| 2026-05-06 03:02 | 56.91568 | -23.22073 | 36104 ft | 436 kts | 284° |
| 2026-05-06 03:02 | 56.92809 | -23.32925 | 36109 ft | 435 kts | 284° |
| 2026-05-06 03:03 | 56.94039 | -23.43769 | 36104 ft | 434 kts | 284° |
| 2026-05-06 03:03 | 56.95257 | -23.54596 | 36110 ft | 434 kts | 284° |
| 2026-05-06 03:04 | 56.96467 | -23.65440 | 36106 ft | 435 kts | 284° |
| 2026-05-06 03:04 | 56.97672 | -23.76329 | 36112 ft | 437 kts | 284° |
| 2026-05-06 03:05 | 56.98872 | -23.87268 | 36112 ft | 438 kts | 284° |
| 2026-05-06 03:05 | 57.00067 | -23.98253 | 36115 ft | 439 kts | 284° |
| 2026-05-06 03:06 | 57.01249 | -24.09227 | 36102 ft | 438 kts | 284° |
| 2026-05-06 03:06 | 57.02419 | -24.20180 | 36095 ft | 436 kts | 284° |
| 2026-05-06 03:07 | 57.03575 | -24.31093 | 36077 ft | 435 kts | 283° |
| 2026-05-06 03:07 | 57.04721 | -24.42006 | 36111 ft | 436 kts | 283° |
| 2026-05-06 03:08 | 57.05860 | -24.52949 | 36112 ft | 437 kts | 283° |
| 2026-05-06 03:08 | 57.06985 | -24.63856 | 36105 ft | 438 kts | 283° |
| 2026-05-06 03:09 | 57.08111 | -24.74869 | 36105 ft | 439 kts | 283° |
| 2026-05-06 03:09 | 57.09228 | -24.85910 | 36108 ft | 439 kts | 283° |
| 2026-05-06 03:10 | 57.10335 | -24.96947 | 36111 ft | 439 kts | 283° |
| 2026-05-06 03:10 | 57.11430 | -25.07974 | 36098 ft | 437 kts | 283° |
| 2026-05-06 03:11 | 57.12513 | -25.18975 | 36103 ft | 436 kts | 283° |
| 2026-05-06 03:11 | 57.13583 | -25.29951 | 36103 ft | 435 kts | 283° |
| 2026-05-06 03:12 | 57.14642 | -25.40916 | 36107 ft | 435 kts | 283° |
| 2026-05-06 03:12 | 57.15691 | -25.51875 | 36107 ft | 435 kts | 283° |
| 2026-05-06 03:13 | 57.16732 | -25.62864 | 36105 ft | 435 kts | 282° |
| 2026-05-06 03:13 | 57.17763 | -25.73858 | 36076 ft | 436 kts | 282° |
| 2026-05-06 03:14 | 57.18789 | -25.84900 | 36103 ft | 438 kts | 282° |
| 2026-05-06 03:14 | 57.19810 | -25.96004 | 36114 ft | 440 kts | 282° |
| 2026-05-06 03:15 | 57.20823 | -26.07142 | 36112 ft | 440 kts | 282° |
| 2026-05-06 03:15 | 57.21826 | -26.18287 | 36109 ft | 440 kts | 282° |
| 2026-05-06 03:16 | 57.22817 | -26.29407 | 36112 ft | 439 kts | 282° |
| 2026-05-06 03:16 | 57.23797 | -26.40521 | 36112 ft | 438 kts | 282° |
| 2026-05-06 03:17 | 57.24766 | -26.51622 | 36102 ft | 438 kts | 281° |
| 2026-05-06 03:17 | 57.25729 | -26.62763 | 36123 ft | 440 kts | 281° |
| 2026-05-06 03:18 | 57.26679 | -26.73886 | 36121 ft | 442 kts | 281° |
| 2026-05-06 03:18 | 57.27629 | -26.85125 | 36121 ft | 443 kts | 281° |
| 2026-05-06 03:19 | 57.28415 | -26.94538 | 36117 ft | 443 kts | 281° |
| 2026-05-06 03:19 | 57.29345 | -27.05774 | 36116 ft | 441 kts | 281° |
| 2026-05-06 03:20 | 57.30715 | -27.22560 | 36103 ft | 440 kts | 281° |
| 2026-05-06 03:20 | 57.31612 | -27.33705 | 36123 ft | 442 kts | 281° |
| 2026-05-06 03:21 | 57.32516 | -27.45076 | 36132 ft | 445 kts | 280° |
| 2026-05-06 03:21 | 57.33402 | -27.56350 | 36128 ft | 447 kts | 280° |
| 2026-05-06 03:22 | 57.34292 | -27.67818 | 36125 ft | 447 kts | 280° |
| 2026-05-06 03:22 | 57.35166 | -27.79215 | 36133 ft | 447 kts | 280° |
| 2026-05-06 03:23 | 57.36022 | -27.90515 | 36126 ft | 445 kts | 280° |
| 2026-05-06 03:23 | 57.36869 | -28.01841 | 36125 ft | 444 kts | 279° |
| 2026-05-06 03:24 | 57.37707 | -28.13177 | 36139 ft | 445 kts | 279° |
| 2026-05-06 03:24 | 57.38539 | -28.24578 | 36140 ft | 447 kts | 279° |
| 2026-05-06 03:25 | 57.39364 | -28.36025 | 36135 ft | 449 kts | 279° |
| 2026-05-06 03:25 | 57.40179 | -28.47501 | 36139 ft | 449 kts | 279° |
| 2026-05-06 03:26 | 57.40985 | -28.58987 | 36139 ft | 449 kts | 279° |
| 2026-05-06 03:26 | 57.41780 | -28.70475 | 36123 ft | 449 kts | 279° |
| 2026-05-06 03:27 | 57.42566 | -28.81995 | 36153 ft | 451 kts | 279° |
| 2026-05-06 03:27 | 57.43344 | -28.93546 | 36149 ft | 452 kts | 278° |
| 2026-05-06 03:28 | 57.44114 | -29.05142 | 36149 ft | 452 kts | 278° |
| 2026-05-06 03:28 | 57.44872 | -29.16733 | 36150 ft | 452 kts | 278° |
| 2026-05-06 03:29 | 57.45619 | -29.28327 | 36149 ft | 452 kts | 278° |
| 2026-05-06 03:29 | 57.46356 | -29.39918 | 36150 ft | 452 kts | 278° |
| 2026-05-06 03:30 | 57.47078 | -29.51447 | 36150 ft | 453 kts | 278° |
| 2026-05-06 03:30 | 57.47796 | -29.63096 | 36162 ft | 455 kts | 277° |
| 2026-05-06 03:31 | 57.48506 | -29.74788 | 36157 ft | 457 kts | 277° |
| 2026-05-06 03:31 | 57.49210 | -29.86532 | 36155 ft | 457 kts | 277° |
| 2026-05-06 03:32 | 57.49917 | -29.98256 | 36156 ft | 456 kts | 279° |
| 2026-05-06 03:32 | 57.51309 | -30.09708 | 36162 ft | 453 kts | 286° |
| 2026-05-06 03:33 | 57.52952 | -30.21022 | 36144 ft | 453 kts | 285° |
| 2026-05-06 03:33 | 57.54574 | -30.32381 | 36167 ft | 455 kts | 285° |
| 2026-05-06 03:34 | 57.56179 | -30.43827 | 36163 ft | 458 kts | 285° |
| 2026-05-06 03:34 | 57.57773 | -30.55329 | 36167 ft | 460 kts | 285° |
| 2026-05-06 03:35 | 57.59202 | -30.65725 | 36175 ft | 460 kts | 285° |
| 2026-05-06 03:35 | 57.60780 | -30.77287 | 36162 ft | 460 kts | 285° |
| 2026-05-06 03:36 | 57.62345 | -30.88830 | 36163 ft | 458 kts | 285° |
| 2026-05-06 03:36 | 57.63895 | -31.00356 | 36171 ft | 457 kts | 285° |
| 2026-05-06 03:37 | 57.65436 | -31.11892 | 36164 ft | 459 kts | 284° |
| 2026-05-06 03:37 | 57.66971 | -31.23482 | 36177 ft | 461 kts | 284° |
| 2026-05-06 03:38 | 57.68503 | -31.35140 | 36179 ft | 463 kts | 284° |
| 2026-05-06 03:38 | 57.70030 | -31.46842 | 36170 ft | 463 kts | 284° |
| 2026-05-06 03:39 | 57.71544 | -31.58550 | 36171 ft | 463 kts | 284° |
| 2026-05-06 03:39 | 57.73047 | -31.70259 | 36177 ft | 463 kts | 284° |
| 2026-05-06 03:40 | 57.74537 | -31.81961 | 36176 ft | 461 kts | 284° |
| 2026-05-06 03:40 | 57.76003 | -31.93565 | 36162 ft | 462 kts | 283° |
| 2026-05-06 03:41 | 57.77475 | -32.05316 | 36183 ft | 465 kts | 283° |
| 2026-05-06 03:41 | 57.78947 | -32.17164 | 36185 ft | 468 kts | 283° |
| 2026-05-06 03:42 | 57.80416 | -32.29075 | 36180 ft | 470 kts | 283° |
| 2026-05-06 03:42 | 57.81875 | -32.41024 | 36175 ft | 470 kts | 283° |
| 2026-05-06 03:43 | 57.83323 | -32.52978 | 36176 ft | 469 kts | 283° |
| 2026-05-06 03:43 | 57.84756 | -32.64910 | 36179 ft | 468 kts | 283° |
| 2026-05-06 03:44 | 57.86174 | -32.76821 | 36179 ft | 467 kts | 283° |
| 2026-05-06 03:44 | 57.87577 | -32.88703 | 36182 ft | 466 kts | 283° |
| 2026-05-06 03:45 | 57.88970 | -33.00607 | 36184 ft | 466 kts | 282° |
| 2026-05-06 03:45 | 57.90349 | -33.12503 | 36184 ft | 466 kts | 282° |
| 2026-05-06 03:46 | 57.91719 | -33.24414 | 36187 ft | 466 kts | 282° |
| 2026-05-06 03:46 | 57.93077 | -33.36337 | 36187 ft | 466 kts | 282° |
| 2026-05-06 03:47 | 57.94424 | -33.48265 | 36193 ft | 466 kts | 282° |
| 2026-05-06 03:47 | 57.95761 | -33.60212 | 36188 ft | 466 kts | 282° |
| 2026-05-06 03:48 | 57.97091 | -33.72203 | 36186 ft | 469 kts | 282° |
| 2026-05-06 03:48 | 57.98420 | -33.84298 | 36206 ft | 474 kts | 282° |
| 2026-05-06 03:49 | 57.99748 | -33.96509 | 36193 ft | 477 kts | 282° |
| 2026-05-06 03:49 | 58.01072 | -34.08789 | 36191 ft | 478 kts | 282° |
| 2026-05-06 03:50 | 58.02383 | -34.21070 | 36188 ft | 477 kts | 281° |
| 2026-05-06 03:50 | 58.03676 | -34.33310 | 36190 ft | 475 kts | 281° |
| 2026-05-06 03:51 | 58.04953 | -34.45508 | 36196 ft | 473 kts | 281° |
| 2026-05-06 03:51 | 58.06218 | -34.57709 | 36197 ft | 474 kts | 281° |
| 2026-05-06 03:52 | 58.07482 | -34.70033 | 36195 ft | 482 kts | 281° |
| 2026-05-06 03:52 | 58.08752 | -34.82536 | 36204 ft | 486 kts | 281° |
| 2026-05-06 03:53 | 58.10019 | -34.95144 | 36204 ft | 488 kts | 281° |
| 2026-05-06 03:53 | 58.11263 | -35.07654 | 36206 ft | 480 kts | 281° |
| 2026-05-06 03:54 | 58.12479 | -35.20009 | 36204 ft | 479 kts | 281° |
| 2026-05-06 03:54 | 58.13694 | -35.32492 | 36209 ft | 486 kts | 281° |
| 2026-05-06 03:55 | 58.14901 | -35.45021 | 36199 ft | 486 kts | 280° |
| 2026-05-06 03:55 | 58.16098 | -35.57586 | 36193 ft | 486 kts | 280° |
| 2026-05-06 03:56 | 58.17286 | -35.70198 | 36194 ft | 487 kts | 280° |
| 2026-05-06 03:56 | 58.18466 | -35.82859 | 36205 ft | 488 kts | 280° |
| 2026-05-06 03:57 | 58.19631 | -35.95506 | 36199 ft | 488 kts | 280° |
| 2026-05-06 03:57 | 58.20784 | -36.08160 | 36206 ft | 487 kts | 280° |
| 2026-05-06 03:58 | 58.21924 | -36.20827 | 36202 ft | 487 kts | 279° |
| 2026-05-06 03:58 | 58.23050 | -36.33482 | 36220 ft | 488 kts | 279° |
| 2026-05-06 03:59 | 58.24173 | -36.46242 | 36218 ft | 492 kts | 279° |
| 2026-05-06 03:59 | 58.25287 | -36.59079 | 36214 ft | 494 kts | 279° |
| 2026-05-06 04:00 | 58.26391 | -36.71935 | 36213 ft | 493 kts | 279° |
| 2026-05-06 04:00 | 58.27479 | -36.84769 | 36208 ft | 492 kts | 279° |
| 2026-05-06 04:01 | 58.28551 | -36.97581 | 36209 ft | 490 kts | 279° |
| 2026-05-06 04:01 | 58.29608 | -37.10372 | 36209 ft | 490 kts | 279° |
| 2026-05-06 04:02 | 58.30657 | -37.23223 | 36219 ft | 494 kts | 278° |
| 2026-05-06 04:02 | 58.31699 | -37.36148 | 36223 ft | 495 kts | 278° |
| 2026-05-06 04:03 | 58.32729 | -37.49110 | 36217 ft | 496 kts | 278° |
| 2026-05-06 04:03 | 58.33747 | -37.62085 | 36212 ft | 495 kts | 278° |
| 2026-05-06 04:04 | 58.34750 | -37.75044 | 36217 ft | 494 kts | 278° |
| 2026-05-06 04:04 | 58.35732 | -37.87904 | 36208 ft | 494 kts | 278° |
| 2026-05-06 04:05 | 58.36708 | -38.00866 | 36218 ft | 495 kts | 278° |
| 2026-05-06 04:05 | 58.37512 | -38.11680 | 36237 ft | 496 kts | 277° |
| 2026-05-06 04:06 | 58.38628 | -38.26918 | 36221 ft | 497 kts | 277° |
| 2026-05-06 04:06 | 58.39412 | -38.37778 | 36220 ft | 498 kts | 277° |
| 2026-05-06 04:07 | 58.40344 | -38.50848 | 36220 ft | 498 kts | 277° |
| 2026-05-06 04:07 | 58.41262 | -38.63923 | 36221 ft | 497 kts | 277° |
| 2026-05-06 04:08 | 58.42167 | -38.77013 | 36224 ft | 498 kts | 277° |
| 2026-05-06 04:08 | 58.43060 | -38.90130 | 36226 ft | 499 kts | 277° |
| 2026-05-06 04:09 | 58.43943 | -39.03299 | 36241 ft | 501 kts | 276° |
| 2026-05-06 04:09 | 58.44813 | -39.16497 | 36218 ft | 502 kts | 276° |
| 2026-05-06 04:10 | 58.45671 | -39.29709 | 36219 ft | 501 kts | 276° |
| 2026-05-06 04:10 | 58.46515 | -39.42922 | 36223 ft | 500 kts | 276° |
| 2026-05-06 04:11 | 58.47343 | -39.56117 | 36221 ft | 500 kts | 276° |
| 2026-05-06 04:11 | 58.48157 | -39.69292 | 36230 ft | 499 kts | 276° |
| 2026-05-06 04:12 | 58.48958 | -39.82480 | 36227 ft | 499 kts | 276° |
| 2026-05-06 04:12 | 58.49747 | -39.95657 | 36250 ft | 500 kts | 276° |
| 2026-05-06 04:13 | 58.51119 | -40.08700 | 36233 ft | 502 kts | 284° |
| 2026-05-06 04:13 | 58.52983 | -40.21576 | 36226 ft | 503 kts | 285° |
| 2026-05-06 04:14 | 58.54829 | -40.34402 | 36225 ft | 503 kts | 284° |
| 2026-05-06 04:14 | 58.56645 | -40.47354 | 36229 ft | 504 kts | 284° |
| 2026-05-06 04:15 | 58.58436 | -40.60357 | 36237 ft | 505 kts | 284° |
| 2026-05-06 04:15 | 58.60210 | -40.73372 | 36234 ft | 504 kts | 284° |
| 2026-05-06 04:16 | 58.61971 | -40.86394 | 36242 ft | 504 kts | 284° |
| 2026-05-06 04:16 | 58.63717 | -40.99408 | 36245 ft | 504 kts | 284° |
| 2026-05-06 04:17 | 58.65455 | -41.12463 | 36242 ft | 505 kts | 283° |
| 2026-05-06 04:17 | 58.67187 | -41.25596 | 36250 ft | 508 kts | 283° |
| 2026-05-06 04:18 | 58.68911 | -41.38780 | 36241 ft | 510 kts | 283° |
| 2026-05-06 04:18 | 58.70625 | -41.52005 | 36250 ft | 510 kts | 283° |
| 2026-05-06 04:19 | 58.72326 | -41.65245 | 36258 ft | 509 kts | 283° |
| 2026-05-06 04:19 | 58.74011 | -41.78481 | 36256 ft | 508 kts | 283° |
| 2026-05-06 04:20 | 58.75679 | -41.91694 | 36252 ft | 509 kts | 283° |
| 2026-05-06 04:20 | 58.77339 | -42.04974 | 36259 ft | 511 kts | 283° |
| 2026-05-06 04:21 | 58.78993 | -42.18323 | 36265 ft | 512 kts | 283° |
| 2026-05-06 04:21 | 58.80631 | -42.31669 | 36278 ft | 510 kts | 283° |
| 2026-05-06 04:22 | 58.82250 | -42.44984 | 36257 ft | 509 kts | 283° |
| 2026-05-06 04:23 | 58.84653 | -42.64990 | 36272 ft | 511 kts | 282° |
| 2026-05-06 04:23 | 58.86245 | -42.78400 | 36275 ft | 512 kts | 282° |
| 2026-05-06 04:24 | 58.87822 | -42.91810 | 36278 ft | 512 kts | 282° |
| 2026-05-06 04:24 | 58.89384 | -43.05217 | 36275 ft | 512 kts | 282° |
| 2026-05-06 04:25 | 58.90934 | -43.18663 | 36278 ft | 513 kts | 282° |
| 2026-05-06 04:25 | 58.92469 | -43.32113 | 36311 ft | 515 kts | 281° |
| 2026-05-06 04:26 | 58.94002 | -43.45679 | 36295 ft | 517 kts | 281° |
| 2026-05-06 04:26 | 58.95534 | -43.59380 | 36303 ft | 524 kts | 281° |
| 2026-05-06 04:27 | 58.97058 | -43.73133 | 36299 ft | 517 kts | 281° |
| 2026-05-06 04:27 | 58.98541 | -43.86664 | 36260 ft | 514 kts | 281° |
| 2026-05-06 04:28 | 59.00023 | -44.00341 | 36287 ft | 523 kts | 281° |
| 2026-05-06 04:28 | 59.01509 | -44.14208 | 36247 ft | 526 kts | 281° |
| 2026-05-06 04:29 | 59.02972 | -44.27974 | 36231 ft | 516 kts | 280° |
| 2026-05-06 04:29 | 59.04413 | -44.41704 | 36231 ft | 524 kts | 280° |
| 2026-05-06 04:30 | 59.05863 | -44.55681 | 36264 ft | 528 kts | 279° |
| 2026-05-06 04:30 | 59.07295 | -44.69629 | 36238 ft | 523 kts | 280° |
| 2026-05-06 04:31 | 59.08702 | -44.83490 | 36238 ft | 524 kts | 279° |
| 2026-05-06 04:31 | 59.10110 | -44.97535 | 36240 ft | 530 kts | 279° |
| 2026-05-06 04:32 | 59.11502 | -45.11562 | 36226 ft | 521 kts | 279° |
| 2026-05-06 04:32 | 59.12863 | -45.25428 | 36216 ft | 523 kts | 279° |
| 2026-05-06 04:33 | 59.14222 | -45.39473 | 36227 ft | 529 kts | 279° |
| 2026-05-06 04:33 | 59.15562 | -45.53469 | 36218 ft | 519 kts | 279° |
| 2026-05-06 04:34 | 59.16869 | -45.67286 | 36225 ft | 521 kts | 278° |
| 2026-05-06 04:34 | 59.18180 | -45.81332 | 36214 ft | 529 kts | 278° |
| 2026-05-06 04:35 | 59.19481 | -45.95431 | 36199 ft | 525 kts | 278° |
| 2026-05-06 04:35 | 59.20755 | -46.09391 | 36187 ft | 524 kts | 278° |
| 2026-05-06 04:36 | 59.22014 | -46.23394 | 36199 ft | 527 kts | 278° |
| 2026-05-06 04:36 | 59.23262 | -46.37427 | 36182 ft | 521 kts | 278° |
| 2026-05-06 04:37 | 59.24488 | -46.51401 | 36179 ft | 524 kts | 278° |
| 2026-05-06 04:37 | 59.25706 | -46.65477 | 36181 ft | 526 kts | 277° |
| 2026-05-06 04:38 | 59.26905 | -46.79502 | 36170 ft | 520 kts | 278° |
| 2026-05-06 04:38 | 59.28087 | -46.93537 | 36185 ft | 527 kts | 277° |
| 2026-05-06 04:39 | 59.29266 | -47.07729 | 36175 ft | 529 kts | 277° |
| 2026-05-06 04:39 | 59.30425 | -47.21821 | 36145 ft | 522 kts | 276° |
| 2026-05-06 04:40 | 59.31564 | -47.35908 | 36173 ft | 529 kts | 276° |
| 2026-05-06 04:40 | 59.32698 | -47.50145 | 36174 ft | 527 kts | 277° |
| 2026-05-06 04:41 | 59.33805 | -47.64214 | 36170 ft | 519 kts | 277° |
| 2026-05-06 04:41 | 59.34891 | -47.78222 | 36172 ft | 521 kts | 277° |
| 2026-05-06 04:42 | 59.35965 | -47.92282 | 36162 ft | 517 kts | 277° |
| 2026-05-06 04:42 | 59.37008 | -48.06129 | 36141 ft | 520 kts | 275° |
| 2026-05-06 04:43 | 59.38048 | -48.20184 | 36146 ft | 520 kts | 275° |
| 2026-05-06 04:43 | 59.39068 | -48.34142 | 36125 ft | 514 kts | 275° |
| 2026-05-06 04:44 | 59.40073 | -48.48114 | 36136 ft | 521 kts | 275° |
| 2026-05-06 04:44 | 59.41070 | -48.62223 | 36160 ft | 520 kts | 276° |
| 2026-05-06 04:45 | 59.42048 | -48.76231 | 36160 ft | 516 kts | 275° |
| 2026-05-06 04:45 | 59.43011 | -48.90284 | 36164 ft | 521 kts | 275° |
| 2026-05-06 04:46 | 59.43960 | -49.04344 | 36119 ft | 515 kts | 275° |
| 2026-05-06 04:46 | 59.44887 | -49.18293 | 36142 ft | 517 kts | 274° |
| 2026-05-06 04:47 | 59.45800 | -49.32331 | 36140 ft | 517 kts | 274° |
| 2026-05-06 04:47 | 59.46694 | -49.46243 | 36129 ft | 511 kts | 275° |
| 2026-05-06 04:48 | 59.47574 | -49.60220 | 36146 ft | 518 kts | 275° |
| 2026-05-06 04:48 | 59.48446 | -49.74275 | 36119 ft | 515 kts | 275° |
| 2026-05-06 04:49 | 59.49297 | -49.88201 | 36113 ft | 513 kts | 274° |
| 2026-05-06 04:49 | 59.49559 | -50.02244 | 36137 ft | 512 kts | 264° |
| 2026-05-06 04:50 | 59.48562 | -50.16008 | 36127 ft | 508 kts | 256° |
| 2026-05-06 04:50 | 59.47173 | -50.29620 | 36115 ft | 507 kts | 253° |
| 2026-05-06 04:51 | 59.45805 | -50.43083 | 36105 ft | 505 kts | 255° |
| 2026-05-06 04:51 | 59.44447 | -50.56655 | 36114 ft | 505 kts | 256° |
| 2026-05-06 04:52 | 59.43107 | -50.70105 | 36086 ft | 500 kts | 252° |
| 2026-05-06 04:52 | 59.41752 | -50.83425 | 36081 ft | 497 kts | 254° |
| 2026-05-06 04:53 | 59.40370 | -50.96847 | 36069 ft | 505 kts | 253° |
| 2026-05-06 04:53 | 59.38965 | -51.10395 | 36097 ft | 505 kts | 256° |
| 2026-05-06 04:54 | 59.37565 | -51.23823 | 36041 ft | 499 kts | 256° |
| 2026-05-06 04:54 | 59.36172 | -51.37059 | 36061 ft | 497 kts | 256° |
| 2026-05-06 04:55 | 59.34990 | -51.48129 | 36055 ft | 501 kts | 255° |
| 2026-05-06 04:55 | 59.33532 | -51.61556 | 36050 ft | 503 kts | 255° |
| 2026-05-06 04:56 | 59.32071 | -51.74952 | 36012 ft | 502 kts | 254° |
| 2026-05-06 04:56 | 59.30604 | -51.88249 | 36051 ft | 500 kts | 255° |
| 2026-05-06 04:57 | 59.29126 | -52.01535 | 36011 ft | 499 kts | 253° |
| 2026-05-06 04:57 | 59.27641 | -52.14776 | 36004 ft | 498 kts | 255° |
| 2026-05-06 04:58 | 59.26142 | -52.27981 | 36017 ft | 496 kts | 255° |
| 2026-05-06 04:58 | 59.24636 | -52.41120 | 36014 ft | 497 kts | 253° |
| 2026-05-06 04:59 | 59.23104 | -52.54327 | 36000 ft | 501 kts | 255° |
| 2026-05-06 04:59 | 59.21556 | -52.67610 | 35998 ft | 503 kts | 253° |
| 2026-05-06 05:00 | 59.20001 | -52.80861 | 35981 ft | 498 kts | 253° |
| 2026-05-06 05:00 | 59.18440 | -52.93998 | 35983 ft | 497 kts | 254° |
| 2026-05-06 05:01 | 59.16855 | -53.07140 | 35988 ft | 501 kts | 252° |
| 2026-05-06 05:01 | 59.15239 | -53.20386 | 35974 ft | 505 kts | 253° |
| 2026-05-06 05:02 | 59.13615 | -53.33683 | 35954 ft | 503 kts | 252° |
| 2026-05-06 05:02 | 59.12005 | -53.46785 | 35955 ft | 493 kts | 255° |
| 2026-05-06 05:03 | 59.10388 | -53.59756 | 35956 ft | 493 kts | 253° |
| 2026-05-06 05:03 | 59.08746 | -53.72756 | 35924 ft | 497 kts | 254° |
| 2026-05-06 05:04 | 59.07087 | -53.85819 | 35926 ft | 497 kts | 253° |
| 2026-05-06 05:04 | 59.05422 | -53.98812 | 35915 ft | 496 kts | 252° |
| 2026-05-06 05:05 | 59.03743 | -54.11839 | 35900 ft | 499 kts | 251° |
| 2026-05-06 05:05 | 59.02036 | -54.24926 | 35914 ft | 496 kts | 252° |
| 2026-05-06 05:06 | 59.00364 | -54.37682 | 35897 ft | 488 kts | 253° |
| 2026-05-06 05:06 | 58.98660 | -54.50524 | 35892 ft | 491 kts | 253° |
| 2026-05-06 05:07 | 58.96954 | -54.63270 | 35886 ft | 492 kts | 253° |
| 2026-05-06 05:07 | 58.95212 | -54.76172 | 35875 ft | 491 kts | 252° |
| 2026-05-06 05:08 | 58.93488 | -54.88859 | 35877 ft | 491 kts | 251° |
| 2026-05-06 05:08 | 58.91736 | -55.01636 | 35868 ft | 491 kts | 253° |
| 2026-05-06 05:09 | 58.89982 | -55.14377 | 35860 ft | 488 kts | 253° |
| 2026-05-06 05:09 | 58.88228 | -55.27010 | 35840 ft | 485 kts | 252° |
| 2026-05-06 05:10 | 58.86460 | -55.39574 | 35837 ft | 484 kts | 251° |
| 2026-05-06 05:10 | 58.84685 | -55.52131 | 35849 ft | 485 kts | 252° |
| 2026-05-06 05:11 | 58.82887 | -55.64694 | 35843 ft | 486 kts | 252° |
| 2026-05-06 05:11 | 58.81081 | -55.77264 | 35841 ft | 485 kts | 252° |
| 2026-05-06 05:12 | 58.79289 | -55.89653 | 35822 ft | 480 kts | 252° |
| 2026-05-06 05:12 | 58.77480 | -56.02067 | 35819 ft | 476 kts | 251° |
| 2026-05-06 05:13 | 58.75686 | -56.14220 | 35810 ft | 474 kts | 251° |
| 2026-05-06 05:13 | 58.73874 | -56.26434 | 35803 ft | 474 kts | 252° |
| 2026-05-06 05:14 | 58.72037 | -56.38743 | 35808 ft | 476 kts | 251° |
| 2026-05-06 05:14 | 58.70212 | -56.50904 | 35808 ft | 476 kts | 251° |
| 2026-05-06 05:15 | 58.68366 | -56.63105 | 35806 ft | 474 kts | 250° |
| 2026-05-06 05:15 | 58.66522 | -56.75215 | 35807 ft | 470 kts | 250° |
| 2026-05-06 05:16 | 58.64667 | -56.87237 | 35781 ft | 470 kts | 251° |
| 2026-05-06 05:16 | 58.62805 | -56.99272 | 35790 ft | 471 kts | 251° |
| 2026-05-06 05:17 | 58.60926 | -57.11323 | 35771 ft | 472 kts | 251° |
| 2026-05-06 05:17 | 58.59035 | -57.23392 | 35783 ft | 473 kts | 251° |
| 2026-05-06 05:18 | 58.57131 | -57.35440 | 35776 ft | 472 kts | 251° |
| 2026-05-06 05:18 | 58.55220 | -57.47440 | 35753 ft | 470 kts | 250° |
| 2026-05-06 05:19 | 58.53302 | -57.59391 | 35746 ft | 469 kts | 250° |
| 2026-05-06 05:19 | 58.51382 | -57.71293 | 35746 ft | 468 kts | 249° |
| 2026-05-06 05:20 | 58.49454 | -57.83176 | 35761 ft | 468 kts | 250° |
| 2026-05-06 05:20 | 58.47507 | -57.95096 | 35753 ft | 471 kts | 249° |
| 2026-05-06 05:21 | 58.46097 | -58.07350 | 35736 ft | 475 kts | 260° |
| 2026-05-06 05:21 | 58.45285 | -58.19859 | 35733 ft | 475 kts | 259° |
| 2026-05-06 05:22 | 58.44459 | -58.32346 | 35724 ft | 474 kts | 260° |
| 2026-05-06 05:22 | 58.43596 | -58.44808 | 35717 ft | 473 kts | 259° |
| 2026-05-06 05:23 | 58.42716 | -58.57147 | 35720 ft | 472 kts | 258° |
| 2026-05-06 05:23 | 58.41358 | -58.75787 | 35714 ft | 474 kts | 259° |
| 2026-05-06 05:24 | 58.40434 | -58.88266 | 35711 ft | 476 kts | 258° |
| 2026-05-06 05:24 | 58.39497 | -59.00771 | 35697 ft | 476 kts | 258° |
| 2026-05-06 05:25 | 58.38552 | -59.13223 | 35693 ft | 474 kts | 258° |
| 2026-05-06 05:25 | 58.37597 | -59.25635 | 35694 ft | 472 kts | 258° |
| 2026-05-06 05:26 | 58.36633 | -59.37992 | 35686 ft | 471 kts | 258° |
| 2026-05-06 05:26 | 58.35657 | -59.50343 | 35690 ft | 472 kts | 258° |
| 2026-05-06 05:27 | 58.34665 | -59.62738 | 35684 ft | 474 kts | 258° |
| 2026-05-06 05:27 | 58.33660 | -59.75144 | 35680 ft | 475 kts | 258° |
| 2026-05-06 05:28 | 58.32640 | -59.87585 | 35691 ft | 476 kts | 257° |
| 2026-05-06 05:28 | 58.31610 | -59.99998 | 35670 ft | 474 kts | 257° |
| 2026-05-06 05:29 | 58.30570 | -60.12367 | 35660 ft | 472 kts | 257° |
| 2026-05-06 05:29 | 58.29524 | -60.24670 | 35685 ft | 471 kts | 257° |
| 2026-05-06 05:30 | 58.28465 | -60.36962 | 35667 ft | 472 kts | 257° |
| 2026-05-06 05:30 | 58.27391 | -60.49290 | 35665 ft | 473 kts | 257° |
| 2026-05-06 05:31 | 58.26303 | -60.61636 | 35648 ft | 474 kts | 257° |
| 2026-05-06 05:31 | 58.25201 | -60.73996 | 35646 ft | 475 kts | 257° |
| 2026-05-06 05:32 | 58.24087 | -60.86359 | 35643 ft | 475 kts | 256° |
| 2026-05-06 05:32 | 58.22960 | -60.98718 | 35632 ft | 475 kts | 256° |
| 2026-05-06 05:33 | 58.21822 | -61.11060 | 35640 ft | 476 kts | 256° |
| 2026-05-06 05:33 | 58.20667 | -61.23445 | 35632 ft | 477 kts | 256° |
| 2026-05-06 05:34 | 58.19498 | -61.35849 | 35621 ft | 478 kts | 256° |
| 2026-05-06 05:34 | 58.18324 | -61.48175 | 35617 ft | 478 kts | 256° |
| 2026-05-06 05:35 | 58.17131 | -61.60568 | 35609 ft | 478 kts | 256° |
| 2026-05-06 05:35 | 58.15927 | -61.72941 | 35626 ft | 477 kts | 256° |
| 2026-05-06 05:36 | 58.14713 | -61.85283 | 35620 ft | 476 kts | 256° |
| 2026-05-06 05:36 | 58.13488 | -61.97598 | 35600 ft | 476 kts | 256° |
| 2026-05-06 05:37 | 58.12251 | -62.09912 | 35590 ft | 476 kts | 255° |
| 2026-05-06 05:37 | 58.11002 | -62.22221 | 35588 ft | 477 kts | 255° |
| 2026-05-06 05:38 | 58.09741 | -62.34521 | 35587 ft | 477 kts | 255° |
| 2026-05-06 05:38 | 58.08467 | -62.46826 | 35583 ft | 477 kts | 255° |
| 2026-05-06 05:39 | 58.07179 | -62.59142 | 35577 ft | 478 kts | 255° |
| 2026-05-06 05:39 | 58.05878 | -62.71465 | 35581 ft | 479 kts | 255° |
| 2026-05-06 05:40 | 58.04564 | -62.83782 | 35578 ft | 479 kts | 255° |
| 2026-05-06 05:40 | 58.03239 | -62.96083 | 35569 ft | 479 kts | 255° |
| 2026-05-06 05:41 | 58.01902 | -63.08382 | 35574 ft | 478 kts | 255° |
| 2026-05-06 05:41 | 58.00786 | -63.18583 | 35561 ft | 478 kts | 255° |
| 2026-05-06 05:42 | 57.99420 | -63.30837 | 35555 ft | 477 kts | 254° |
| 2026-05-06 05:42 | 57.97966 | -63.43060 | 35575 ft | 479 kts | 254° |
| 2026-05-06 05:43 | 57.96473 | -63.55315 | 35573 ft | 481 kts | 254° |
| 2026-05-06 05:43 | 57.94978 | -63.67570 | 35555 ft | 480 kts | 254° |
| 2026-05-06 05:44 | 57.93481 | -63.79796 | 35531 ft | 479 kts | 254° |
| 2026-05-06 05:44 | 57.91980 | -63.91974 | 35520 ft | 477 kts | 253° |
| 2026-05-06 05:45 | 57.90469 | -64.04121 | 35533 ft | 476 kts | 253° |
| 2026-05-06 05:45 | 57.88949 | -64.16231 | 35530 ft | 476 kts | 253° |
| 2026-05-06 05:46 | 57.87417 | -64.28342 | 35508 ft | 476 kts | 253° |
| 2026-05-06 05:46 | 57.85872 | -64.40447 | 35520 ft | 477 kts | 253° |
| 2026-05-06 05:47 | 57.84316 | -64.52536 | 35517 ft | 476 kts | 253° |
| 2026-05-06 05:47 | 57.82753 | -64.64587 | 35500 ft | 475 kts | 253° |
| 2026-05-06 05:48 | 57.81183 | -64.76598 | 35502 ft | 474 kts | 253° |
| 2026-05-06 05:48 | 57.79601 | -64.88593 | 35502 ft | 473 kts | 253° |
| 2026-05-06 05:49 | 57.78011 | -65.00556 | 35501 ft | 474 kts | 253° |
| 2026-05-06 05:49 | 57.76400 | -65.12574 | 35498 ft | 476 kts | 253° |
| 2026-05-06 05:50 | 57.74784 | -65.24541 | 35487 ft | 478 kts | 253° |
| 2026-05-06 05:50 | 57.73143 | -65.36597 | 35482 ft | 478 kts | 253° |
| 2026-05-06 05:51 | 57.71495 | -65.48619 | 35469 ft | 476 kts | 252° |
| 2026-05-06 05:51 | 57.69831 | -65.60662 | 35461 ft | 474 kts | 252° |
| 2026-05-06 05:52 | 57.68185 | -65.72475 | 35460 ft | 472 kts | 252° |
| 2026-05-06 05:52 | 57.66517 | -65.84355 | 35466 ft | 474 kts | 252° |
| 2026-05-06 05:53 | 57.64827 | -65.96294 | 35462 ft | 476 kts | 252° |
| 2026-05-06 05:53 | 57.63122 | -66.08255 | 35454 ft | 478 kts | 252° |
| 2026-05-06 05:54 | 57.61400 | -66.20253 | 35451 ft | 478 kts | 252° |
| 2026-05-06 05:54 | 57.59669 | -66.32220 | 35435 ft | 477 kts | 252° |
| 2026-05-06 05:55 | 57.57937 | -66.44106 | 35427 ft | 474 kts | 252° |
| 2026-05-06 05:55 | 57.56197 | -66.55950 | 35436 ft | 474 kts | 252° |
| 2026-05-06 05:56 | 57.54444 | -66.67801 | 35423 ft | 475 kts | 252° |
| 2026-05-06 05:56 | 57.52677 | -66.79660 | 35420 ft | 476 kts | 252° |
| 2026-05-06 05:57 | 57.50892 | -66.91549 | 35410 ft | 477 kts | 252° |
| 2026-05-06 05:57 | 57.49094 | -67.03446 | 35413 ft | 478 kts | 252° |
| 2026-05-06 05:58 | 57.47288 | -67.15309 | 35397 ft | 477 kts | 252° |
| 2026-05-06 05:58 | 57.45474 | -67.27137 | 35412 ft | 475 kts | 252° |
| 2026-05-06 05:59 | 57.43653 | -67.38926 | 35398 ft | 475 kts | 251° |
| 2026-05-06 05:59 | 57.41821 | -67.50712 | 35374 ft | 476 kts | 251° |
| 2026-05-06 06:00 | 57.39975 | -67.62497 | 35392 ft | 476 kts | 251° |
| 2026-05-06 06:00 | 57.38115 | -67.74285 | 35377 ft | 476 kts | 251° |
| 2026-05-06 06:01 | 57.36256 | -67.85992 | 35380 ft | 477 kts | 251° |
| 2026-05-06 06:01 | 57.34363 | -67.97832 | 35371 ft | 476 kts | 251° |
| 2026-05-06 06:02 | 57.32473 | -68.09572 | 35374 ft | 476 kts | 251° |
| 2026-05-06 06:02 | 57.30575 | -68.21281 | 35374 ft | 476 kts | 251° |
| 2026-05-06 06:03 | 57.28676 | -68.32921 | 35377 ft | 476 kts | 251° |
| 2026-05-06 06:03 | 57.26754 | -68.44621 | 35378 ft | 476 kts | 251° |
| 2026-05-06 06:04 | 57.24820 | -68.56314 | 35377 ft | 476 kts | 251° |
| 2026-05-06 06:04 | 57.22874 | -68.68002 | 35376 ft | 476 kts | 251° |
| 2026-05-06 06:05 | 57.20917 | -68.79678 | 35393 ft | 476 kts | 251° |
| 2026-05-06 06:05 | 57.18951 | -68.91332 | 35383 ft | 476 kts | 251° |
| 2026-05-06 06:06 | 57.16975 | -69.02971 | 35375 ft | 475 kts | 251° |
| 2026-05-06 06:06 | 57.14993 | -69.14570 | 35377 ft | 475 kts | 251° |
| 2026-05-06 06:07 | 57.12999 | -69.26164 | 35381 ft | 475 kts | 251° |
| 2026-05-06 06:07 | 57.10995 | -69.37740 | 35380 ft | 475 kts | 250° |
| 2026-05-06 06:08 | 57.08982 | -69.49292 | 35382 ft | 475 kts | 250° |
| 2026-05-06 06:08 | 57.06953 | -69.60863 | 35383 ft | 476 kts | 250° |
| 2026-05-06 06:09 | 57.04910 | -69.72449 | 35383 ft | 477 kts | 250° |
| 2026-05-06 06:09 | 57.02854 | -69.84028 | 35375 ft | 477 kts | 250° |
| 2026-05-06 06:10 | 57.00788 | -69.95611 | 35377 ft | 478 kts | 250° |
| 2026-05-06 06:10 | 56.98785 | -70.07239 | 35381 ft | 478 kts | 252° |
| 2026-05-06 06:11 | 56.97023 | -70.18989 | 35378 ft | 478 kts | 253° |
| 2026-05-06 06:11 | 56.95284 | -70.30751 | 35376 ft | 479 kts | 253° |
| 2026-05-06 06:12 | 56.93498 | -70.42509 | 35388 ft | 479 kts | 253° |
| 2026-05-06 06:12 | 56.91681 | -70.54230 | 35378 ft | 478 kts | 252° |
| 2026-05-06 06:13 | 56.89848 | -70.65934 | 35380 ft | 477 kts | 252° |
| 2026-05-06 06:13 | 56.88023 | -70.77505 | 35382 ft | 476 kts | 252° |
| 2026-05-06 06:14 | 56.86180 | -70.89122 | 35376 ft | 476 kts | 252° |
| 2026-05-06 06:14 | 56.84326 | -71.00730 | 35384 ft | 476 kts | 252° |
| 2026-05-06 06:15 | 56.82459 | -71.12343 | 35383 ft | 477 kts | 252° |
| 2026-05-06 06:15 | 56.80581 | -71.23950 | 35376 ft | 478 kts | 252° |
| 2026-05-06 06:16 | 56.78687 | -71.35571 | 35389 ft | 478 kts | 252° |
| 2026-05-06 06:16 | 56.76783 | -71.47175 | 35374 ft | 477 kts | 252° |
| 2026-05-06 06:17 | 56.74875 | -71.58733 | 35372 ft | 476 kts | 252° |
| 2026-05-06 06:17 | 56.72957 | -71.70271 | 35370 ft | 475 kts | 252° |
| 2026-05-06 06:18 | 56.71030 | -71.81788 | 35376 ft | 475 kts | 252° |
| 2026-05-06 06:18 | 56.69095 | -71.93275 | 35380 ft | 475 kts | 252° |
| 2026-05-06 06:19 | 56.67149 | -72.04755 | 35378 ft | 475 kts | 251° |
| 2026-05-06 06:19 | 56.65192 | -72.16228 | 35374 ft | 475 kts | 251° |
| 2026-05-06 06:20 | 56.63227 | -72.27671 | 35386 ft | 474 kts | 251° |
| 2026-05-06 06:20 | 56.61255 | -72.39081 | 35379 ft | 474 kts | 251° |
| 2026-05-06 06:21 | 56.59285 | -72.50414 | 35375 ft | 473 kts | 251° |
| 2026-05-06 06:21 | 56.57295 | -72.61787 | 35379 ft | 473 kts | 251° |
| 2026-05-06 06:22 | 56.55291 | -72.73166 | 35378 ft | 474 kts | 251° |
| 2026-05-06 06:22 | 56.53276 | -72.84541 | 35375 ft | 474 kts | 251° |
| 2026-05-06 06:23 | 56.51250 | -72.95901 | 35382 ft | 474 kts | 251° |
| 2026-05-06 06:23 | 56.49212 | -73.07264 | 35379 ft | 474 kts | 250° |
| 2026-05-06 06:24 | 56.47167 | -73.18597 | 35371 ft | 473 kts | 250° |
| 2026-05-06 06:24 | 56.45115 | -73.29893 | 35383 ft | 472 kts | 250° |
| 2026-05-06 06:25 | 56.43059 | -73.41148 | 35378 ft | 472 kts | 250° |
| 2026-05-06 06:26 | 56.39953 | -73.58014 | 35397 ft | 472 kts | 250° |
| 2026-05-06 06:26 | 56.37868 | -73.69248 | 35410 ft | 472 kts | 250° |
| 2026-05-06 06:27 | 56.35771 | -73.80497 | 35409 ft | 473 kts | 250° |
| 2026-05-06 06:27 | 56.33661 | -73.91744 | 35396 ft | 474 kts | 250° |
| 2026-05-06 06:28 | 56.31553 | -74.02909 | 35397 ft | 474 kts | 249° |
| 2026-05-06 06:28 | 56.29424 | -74.14121 | 35404 ft | 473 kts | 250° |
| 2026-05-06 06:29 | 56.27290 | -74.25291 | 35403 ft | 472 kts | 250° |
| 2026-05-06 06:29 | 56.25146 | -74.36448 | 35409 ft | 472 kts | 250° |
| 2026-05-06 06:30 | 56.22991 | -74.47594 | 35416 ft | 473 kts | 250° |
| 2026-05-06 06:30 | 56.20822 | -74.58755 | 35418 ft | 474 kts | 250° |
| 2026-05-06 06:31 | 56.18991 | -74.68127 | 35424 ft | 474 kts | 250° |
| 2026-05-06 06:31 | 56.16797 | -74.79297 | 35426 ft | 475 kts | 249° |
| 2026-05-06 06:32 | 56.14592 | -74.90461 | 35420 ft | 474 kts | 249° |
| 2026-05-06 06:32 | 56.12381 | -75.01587 | 35430 ft | 473 kts | 249° |
| 2026-05-06 06:33 | 56.10179 | -75.12608 | 35424 ft | 473 kts | 249° |
| 2026-05-06 06:33 | 56.07938 | -75.23758 | 35429 ft | 473 kts | 250° |
| 2026-05-06 06:34 | 56.05699 | -75.34842 | 35427 ft | 474 kts | 249° |
| 2026-05-06 06:34 | 56.03448 | -75.45918 | 35435 ft | 474 kts | 249° |
| 2026-05-06 06:35 | 56.01184 | -75.56995 | 35433 ft | 474 kts | 249° |
| 2026-05-06 06:35 | 55.98926 | -75.67984 | 35446 ft | 474 kts | 249° |
| 2026-05-06 06:36 | 55.96643 | -75.79038 | 35438 ft | 474 kts | 249° |
| 2026-05-06 06:36 | 55.94352 | -75.90066 | 35443 ft | 474 kts | 249° |
| 2026-05-06 06:37 | 55.92050 | -76.01086 | 35447 ft | 474 kts | 249° |
| 2026-05-06 06:37 | 55.89737 | -76.12099 | 35446 ft | 474 kts | 249° |
| 2026-05-06 06:38 | 55.87414 | -76.23097 | 35443 ft | 474 kts | 248° |
| 2026-05-06 06:38 | 55.85081 | -76.34086 | 35453 ft | 474 kts | 248° |
| 2026-05-06 06:39 | 55.82737 | -76.45066 | 35457 ft | 475 kts | 249° |
| 2026-05-06 06:39 | 55.80383 | -76.56038 | 35456 ft | 475 kts | 249° |
| 2026-05-06 06:40 | 55.78014 | -76.67016 | 35455 ft | 476 kts | 248° |
| 2026-05-06 06:40 | 55.75638 | -76.77971 | 35458 ft | 476 kts | 248° |
| 2026-05-06 06:41 | 55.73250 | -76.88921 | 35455 ft | 475 kts | 248° |
| 2026-05-06 06:41 | 55.70856 | -76.99843 | 35460 ft | 475 kts | 248° |
| 2026-05-06 06:42 | 55.68449 | -77.10765 | 35460 ft | 476 kts | 248° |
| 2026-05-06 06:42 | 55.66033 | -77.21668 | 35464 ft | 476 kts | 248° |
| 2026-05-06 06:43 | 55.63604 | -77.32576 | 35474 ft | 476 kts | 248° |
| 2026-05-06 06:43 | 55.61164 | -77.43474 | 35470 ft | 476 kts | 248° |
| 2026-05-06 06:44 | 55.58719 | -77.54339 | 35471 ft | 475 kts | 248° |
| 2026-05-06 06:44 | 55.56264 | -77.65194 | 35466 ft | 475 kts | 248° |
| 2026-05-06 06:45 | 55.53818 | -77.75954 | 35468 ft | 476 kts | 248° |
| 2026-05-06 06:45 | 55.51323 | -77.86870 | 35467 ft | 476 kts | 248° |
| 2026-05-06 06:46 | 55.48835 | -77.97703 | 35468 ft | 477 kts | 248° |
| 2026-05-06 06:46 | 55.46332 | -78.08541 | 35469 ft | 477 kts | 248° |
| 2026-05-06 06:47 | 55.43840 | -78.19281 | 35468 ft | 477 kts | 248° |
| 2026-05-06 06:47 | 55.41322 | -78.30080 | 35471 ft | 477 kts | 248° |
| 2026-05-06 06:48 | 55.38794 | -78.40864 | 35467 ft | 476 kts | 247° |
| 2026-05-06 06:48 | 55.36259 | -78.51624 | 35470 ft | 476 kts | 247° |
| 2026-05-06 06:49 | 55.33718 | -78.62358 | 35474 ft | 476 kts | 247° |
| 2026-05-06 06:49 | 55.31165 | -78.73088 | 35471 ft | 476 kts | 247° |
| 2026-05-06 06:50 | 55.28602 | -78.83804 | 35470 ft | 476 kts | 247° |
| 2026-05-06 06:50 | 55.26033 | -78.94495 | 35472 ft | 476 kts | 247° |
| 2026-05-06 06:51 | 55.23452 | -79.05183 | 35477 ft | 476 kts | 247° |
| 2026-05-06 06:51 | 55.20862 | -79.15855 | 35474 ft | 476 kts | 247° |
| 2026-05-06 06:52 | 55.18264 | -79.26509 | 35483 ft | 476 kts | 247° |
| 2026-05-06 06:52 | 55.15657 | -79.37148 | 35483 ft | 476 kts | 247° |
| 2026-05-06 06:53 | 55.13038 | -79.47784 | 35487 ft | 476 kts | 247° |
| 2026-05-06 06:53 | 55.10413 | -79.58395 | 35479 ft | 476 kts | 246° |
| 2026-05-06 06:54 | 55.07773 | -79.69012 | 35497 ft | 477 kts | 247° |
| 2026-05-06 06:54 | 55.05125 | -79.79615 | 35490 ft | 477 kts | 247° |
| 2026-05-06 06:55 | 55.02489 | -79.90127 | 35494 ft | 476 kts | 246° |
| 2026-05-06 06:55 | 54.99852 | -80.00693 | 35490 ft | 475 kts | 249° |
| 2026-05-06 06:56 | 54.97672 | -80.11545 | 35497 ft | 475 kts | 252° |
| 2026-05-06 06:56 | 54.95555 | -80.22441 | 35503 ft | 475 kts | 251° |
| 2026-05-06 06:57 | 54.93402 | -80.33391 | 35508 ft | 476 kts | 251° |
| 2026-05-06 06:57 | 54.91249 | -80.44211 | 35512 ft | 477 kts | 251° |
| 2026-05-06 06:58 | 54.89066 | -80.55092 | 35514 ft | 477 kts | 251° |
| 2026-05-06 06:58 | 54.86876 | -80.65938 | 35516 ft | 475 kts | 251° |
| 2026-05-06 06:59 | 54.84683 | -80.76747 | 35511 ft | 474 kts | 251° |
| 2026-05-06 06:59 | 54.82482 | -80.87543 | 35524 ft | 475 kts | 251° |
| 2026-05-06 07:00 | 54.80269 | -80.98333 | 35533 ft | 475 kts | 251° |
| 2026-05-06 07:00 | 54.78041 | -81.09141 | 35542 ft | 476 kts | 250° |
| 2026-05-06 07:01 | 54.75803 | -81.19939 | 35540 ft | 477 kts | 250° |
| 2026-05-06 07:01 | 54.73553 | -81.30735 | 35536 ft | 477 kts | 251° |
| 2026-05-06 07:02 | 54.71292 | -81.41526 | 35544 ft | 477 kts | 251° |
| 2026-05-06 07:02 | 54.69024 | -81.52293 | 35544 ft | 477 kts | 251° |
| 2026-05-06 07:03 | 54.66747 | -81.63046 | 35558 ft | 476 kts | 251° |
| 2026-05-06 07:03 | 54.64468 | -81.73750 | 35557 ft | 475 kts | 250° |
| 2026-05-06 07:04 | 54.62179 | -81.84442 | 35565 ft | 474 kts | 250° |
| 2026-05-06 07:04 | 54.59885 | -81.95106 | 35559 ft | 475 kts | 250° |
| 2026-05-06 07:05 | 54.57577 | -82.05780 | 35578 ft | 476 kts | 250° |
| 2026-05-06 07:05 | 54.55271 | -82.16393 | 35581 ft | 476 kts | 250° |
| 2026-05-06 07:06 | 54.52937 | -82.27071 | 35609 ft | 477 kts | 250° |
| 2026-05-06 07:06 | 54.50591 | -82.37751 | 35593 ft | 477 kts | 250° |
| 2026-05-06 07:07 | 54.48240 | -82.48401 | 35591 ft | 476 kts | 250° |
| 2026-05-06 07:07 | 54.45885 | -82.59013 | 35604 ft | 475 kts | 250° |
| 2026-05-06 07:08 | 54.43518 | -82.69629 | 35609 ft | 476 kts | 250° |
| 2026-05-06 07:08 | 54.41137 | -82.80250 | 35614 ft | 476 kts | 250° |
| 2026-05-06 07:09 | 54.38749 | -82.90851 | 35615 ft | 477 kts | 250° |
| 2026-05-06 07:09 | 54.36348 | -83.01451 | 35618 ft | 477 kts | 249° |
| 2026-05-06 07:10 | 54.33938 | -83.12040 | 35613 ft | 477 kts | 250° |
| 2026-05-06 07:10 | 54.31516 | -83.22633 | 35626 ft | 478 kts | 249° |
| 2026-05-06 07:11 | 54.29083 | -83.33214 | 35624 ft | 477 kts | 249° |
| 2026-05-06 07:11 | 54.26647 | -83.43758 | 35631 ft | 476 kts | 250° |
| 2026-05-06 07:12 | 54.24210 | -83.54253 | 35631 ft | 474 kts | 249° |
| 2026-05-06 07:12 | 54.21767 | -83.64726 | 35632 ft | 474 kts | 249° |
| 2026-05-06 07:13 | 54.19317 | -83.75176 | 35636 ft | 474 kts | 249° |
| 2026-05-06 07:13 | 54.16856 | -83.85623 | 35648 ft | 475 kts | 248° |
| 2026-05-06 07:14 | 54.14383 | -83.96072 | 35642 ft | 475 kts | 249° |
| 2026-05-06 07:14 | 54.11897 | -84.06521 | 35645 ft | 476 kts | 249° |
| 2026-05-06 07:15 | 54.09401 | -84.16961 | 35650 ft | 475 kts | 249° |
| 2026-05-06 07:15 | 54.06899 | -84.27372 | 35642 ft | 474 kts | 248° |
| 2026-05-06 07:16 | 54.04816 | -84.36010 | 35660 ft | 474 kts | 248° |
| 2026-05-06 07:16 | 54.01899 | -84.48042 | 35663 ft | 473 kts | 249° |
| 2026-05-06 07:17 | 53.99788 | -84.56709 | 35663 ft | 473 kts | 248° |
| 2026-05-06 07:17 | 53.97264 | -84.67029 | 35664 ft | 473 kts | 249° |
| 2026-05-06 07:18 | 53.94728 | -84.77350 | 35657 ft | 474 kts | 249° |
| 2026-05-06 07:18 | 53.92194 | -84.87609 | 35676 ft | 475 kts | 248° |
| 2026-05-06 07:19 | 53.89632 | -84.97938 | 35682 ft | 476 kts | 248° |
| 2026-05-06 07:19 | 53.87057 | -85.08270 | 35681 ft | 475 kts | 249° |
| 2026-05-06 07:20 | 53.84478 | -85.18564 | 35694 ft | 474 kts | 249° |
| 2026-05-06 07:20 | 53.81900 | -85.28810 | 35687 ft | 473 kts | 249° |
| 2026-05-06 07:21 | 53.79318 | -85.39028 | 35690 ft | 472 kts | 249° |
| 2026-05-06 07:21 | 53.76730 | -85.49225 | 35701 ft | 472 kts | 248° |
| 2026-05-06 07:22 | 53.74131 | -85.59415 | 35707 ft | 472 kts | 248° |
| 2026-05-06 07:22 | 53.71523 | -85.69593 | 35705 ft | 473 kts | 248° |
| 2026-05-06 07:23 | 53.68900 | -85.79788 | 35707 ft | 474 kts | 248° |
| 2026-05-06 07:23 | 53.66267 | -85.89964 | 35710 ft | 473 kts | 248° |
| 2026-05-06 07:24 | 53.63648 | -86.00045 | 35714 ft | 472 kts | 247° |
| 2026-05-06 07:24 | 53.61009 | -86.10161 | 35727 ft | 471 kts | 248° |
| 2026-05-06 07:25 | 53.58365 | -86.20250 | 35731 ft | 471 kts | 248° |
| 2026-05-06 07:25 | 53.55718 | -86.30302 | 35738 ft | 470 kts | 247° |
| 2026-05-06 07:26 | 53.53062 | -86.40356 | 35733 ft | 470 kts | 246° |
| 2026-05-06 07:26 | 53.50400 | -86.50384 | 35754 ft | 470 kts | 247° |
| 2026-05-06 07:27 | 53.47731 | -86.60387 | 35755 ft | 470 kts | 248° |
| 2026-05-06 07:27 | 53.45050 | -86.70389 | 35763 ft | 470 kts | 248° |
| 2026-05-06 07:28 | 53.42362 | -86.80381 | 35763 ft | 470 kts | 246° |
| 2026-05-06 07:28 | 53.38316 | -86.95336 | 35761 ft | 470 kts | 248° |
| 2026-05-06 07:29 | 53.35611 | -87.05280 | 35772 ft | 469 kts | 248° |
| 2026-05-06 07:29 | 53.32902 | -87.15195 | 35784 ft | 469 kts | 247° |
| 2026-05-06 07:30 | 53.30184 | -87.25101 | 35784 ft | 468 kts | 247° |
| 2026-05-06 07:30 | 53.27462 | -87.34978 | 35795 ft | 468 kts | 247° |
| 2026-05-06 07:31 | 53.24734 | -87.44840 | 35789 ft | 468 kts | 246° |
| 2026-05-06 07:31 | 53.21992 | -87.54705 | 35800 ft | 468 kts | 245° |
| 2026-05-06 07:32 | 53.19246 | -87.64543 | 35804 ft | 468 kts | 246° |
| 2026-05-06 07:32 | 53.16490 | -87.74374 | 35807 ft | 468 kts | 246° |
| 2026-05-06 07:33 | 53.13729 | -87.84184 | 35810 ft | 468 kts | 246° |
| 2026-05-06 07:33 | 53.10961 | -87.93974 | 35809 ft | 468 kts | 245° |
| 2026-05-06 07:34 | 53.08184 | -88.03761 | 35814 ft | 467 kts | 245° |
| 2026-05-06 07:34 | 53.05407 | -88.13509 | 35817 ft | 467 kts | 246° |
| 2026-05-06 07:35 | 53.02618 | -88.23254 | 35825 ft | 467 kts | 245° |
| 2026-05-06 07:35 | 52.99824 | -88.32972 | 35826 ft | 467 kts | 246° |
| 2026-05-06 07:36 | 52.97039 | -88.42622 | 35831 ft | 466 kts | 246° |
| 2026-05-06 07:36 | 52.94212 | -88.52380 | 35823 ft | 466 kts | 246° |
| 2026-05-06 07:37 | 52.91421 | -88.61973 | 35834 ft | 465 kts | 245° |
| 2026-05-06 07:37 | 52.88606 | -88.71608 | 35834 ft | 465 kts | 246° |
| 2026-05-06 07:38 | 52.85784 | -88.81229 | 35843 ft | 464 kts | 245° |
| 2026-05-06 07:38 | 52.82957 | -88.90830 | 35842 ft | 464 kts | 245° |
| 2026-05-06 07:39 | 52.80121 | -89.00419 | 35841 ft | 464 kts | 245° |
| 2026-05-06 07:39 | 52.77277 | -89.09999 | 35865 ft | 464 kts | 245° |
| 2026-05-06 07:40 | 52.74423 | -89.19574 | 35866 ft | 465 kts | 244° |
| 2026-05-06 07:40 | 52.71565 | -89.29123 | 35863 ft | 465 kts | 245° |
| 2026-05-06 07:41 | 52.68695 | -89.38674 | 35858 ft | 465 kts | 245° |
| 2026-05-06 07:41 | 52.65821 | -89.48204 | 35884 ft | 464 kts | 244° |
| 2026-05-06 07:42 | 52.62939 | -89.57720 | 35883 ft | 464 kts | 244° |
| 2026-05-06 07:42 | 52.60052 | -89.67216 | 35892 ft | 464 kts | 244° |
| 2026-05-06 07:43 | 52.57157 | -89.76702 | 35899 ft | 464 kts | 244° |
| 2026-05-06 07:43 | 52.54258 | -89.86163 | 35899 ft | 464 kts | 244° |
| 2026-05-06 07:44 | 52.51349 | -89.95628 | 35892 ft | 464 kts | 244° |
| 2026-05-06 07:44 | 52.48254 | -90.04901 | 35881 ft | 464 kts | 239° |
| 2026-05-06 07:45 | 52.44889 | -90.13925 | 35899 ft | 463 kts | 239° |
| 2026-05-06 07:45 | 52.41518 | -90.22906 | 35912 ft | 463 kts | 239° |
| 2026-05-06 07:46 | 52.38152 | -90.31894 | 35908 ft | 463 kts | 239° |
| 2026-05-06 07:46 | 52.34790 | -90.40875 | 35914 ft | 463 kts | 239° |
| 2026-05-06 07:47 | 52.31424 | -90.49842 | 35916 ft | 463 kts | 239° |
| 2026-05-06 07:47 | 52.28054 | -90.58787 | 35915 ft | 463 kts | 239° |
| 2026-05-06 07:48 | 52.24694 | -90.67675 | 35924 ft | 463 kts | 239° |
| 2026-05-06 07:48 | 52.21288 | -90.76651 | 35923 ft | 462 kts | 239° |
| 2026-05-06 07:49 | 52.17919 | -90.85497 | 35934 ft | 462 kts | 239° |
| 2026-05-06 07:49 | 52.14523 | -90.94385 | 35936 ft | 462 kts | 238° |
| 2026-05-06 07:50 | 52.11125 | -91.03245 | 35938 ft | 462 kts | 238° |
| 2026-05-06 07:50 | 52.07719 | -91.12096 | 35942 ft | 462 kts | 238° |
| 2026-05-06 07:51 | 52.04309 | -91.20928 | 35945 ft | 462 kts | 239° |
| 2026-05-06 07:51 | 52.00890 | -91.29752 | 35946 ft | 461 kts | 238° |
| 2026-05-06 07:52 | 51.97444 | -91.38615 | 35956 ft | 461 kts | 239° |
| 2026-05-06 07:52 | 51.94020 | -91.47390 | 35953 ft | 461 kts | 238° |
| 2026-05-06 07:53 | 51.90611 | -91.56096 | 35965 ft | 461 kts | 238° |
| 2026-05-06 07:53 | 51.87171 | -91.64855 | 35964 ft | 461 kts | 238° |
| 2026-05-06 07:54 | 51.83722 | -91.73602 | 35967 ft | 461 kts | 239° |
| 2026-05-06 07:54 | 51.80264 | -91.82346 | 35974 ft | 462 kts | 238° |
| 2026-05-06 07:55 | 51.76801 | -91.91072 | 35974 ft | 461 kts | 238° |
| 2026-05-06 07:55 | 51.73331 | -91.99785 | 35969 ft | 461 kts | 238° |
| 2026-05-06 07:56 | 51.69832 | -92.08542 | 35978 ft | 461 kts | 238° |
| 2026-05-06 07:56 | 51.66379 | -92.17154 | 35978 ft | 461 kts | 238° |
| 2026-05-06 07:57 | 51.62892 | -92.25821 | 35978 ft | 461 kts | 238° |
| 2026-05-06 07:57 | 51.59398 | -92.34478 | 35985 ft | 461 kts | 237° |
| 2026-05-06 07:58 | 51.55898 | -92.43118 | 35978 ft | 462 kts | 238° |
| 2026-05-06 07:58 | 51.52386 | -92.51760 | 35987 ft | 462 kts | 238° |
| 2026-05-06 07:59 | 51.48870 | -92.60385 | 35986 ft | 462 kts | 238° |
| 2026-05-06 07:59 | 51.45343 | -92.69005 | 35989 ft | 462 kts | 237° |
| 2026-05-06 08:00 | 51.41813 | -92.77605 | 35992 ft | 462 kts | 238° |
| 2026-05-06 08:00 | 51.38274 | -92.86198 | 35992 ft | 462 kts | 238° |
| 2026-05-06 08:01 | 51.34732 | -92.94772 | 35994 ft | 462 kts | 237° |
| 2026-05-06 08:01 | 51.31176 | -93.03352 | 35995 ft | 463 kts | 237° |
| 2026-05-06 08:02 | 51.27611 | -93.11921 | 35999 ft | 463 kts | 238° |
| 2026-05-06 08:02 | 51.24641 | -93.19041 | 35999 ft | 464 kts | 238° |
| 2026-05-06 08:03 | 51.21061 | -93.27595 | 36002 ft | 463 kts | 238° |
| 2026-05-06 08:03 | 51.17477 | -93.36132 | 35996 ft | 464 kts | 237° |
| 2026-05-06 08:04 | 51.13881 | -93.44670 | 36007 ft | 464 kts | 237° |
| 2026-05-06 08:04 | 51.10280 | -93.53189 | 36015 ft | 464 kts | 237° |
| 2026-05-06 08:05 | 51.06672 | -93.61700 | 36013 ft | 464 kts | 237° |
| 2026-05-06 08:05 | 51.03057 | -93.70197 | 36014 ft | 464 kts | 237° |
| 2026-05-06 08:06 | 50.99429 | -93.78699 | 36007 ft | 465 kts | 237° |
| 2026-05-06 08:06 | 50.95801 | -93.87172 | 36016 ft | 465 kts | 237° |
| 2026-05-06 08:07 | 50.92160 | -93.95647 | 36020 ft | 465 kts | 237° |
| 2026-05-06 08:07 | 50.88511 | -94.04115 | 36020 ft | 465 kts | 237° |
| 2026-05-06 08:08 | 50.84856 | -94.12568 | 36018 ft | 465 kts | 237° |
| 2026-05-06 08:08 | 50.81192 | -94.21016 | 36021 ft | 465 kts | 237° |
| 2026-05-06 08:09 | 50.77529 | -94.29433 | 36021 ft | 465 kts | 237° |
| 2026-05-06 08:09 | 50.73857 | -94.37845 | 36026 ft | 464 kts | 237° |
| 2026-05-06 08:10 | 50.70187 | -94.46223 | 36028 ft | 464 kts | 237° |
| 2026-05-06 08:10 | 50.66511 | -94.54589 | 36022 ft | 464 kts | 236° |
| 2026-05-06 08:11 | 50.62855 | -94.62883 | 36024 ft | 464 kts | 236° |
| 2026-05-06 08:11 | 50.59170 | -94.71219 | 36029 ft | 464 kts | 236° |
| 2026-05-06 08:12 | 50.55476 | -94.79545 | 36032 ft | 464 kts | 236° |
| 2026-05-06 08:12 | 50.51773 | -94.87868 | 36044 ft | 465 kts | 236° |
| 2026-05-06 08:13 | 50.48062 | -94.96181 | 36040 ft | 465 kts | 236° |
| 2026-05-06 08:13 | 50.44342 | -95.04488 | 36046 ft | 465 kts | 236° |
| 2026-05-06 08:14 | 50.40614 | -95.12786 | 36038 ft | 465 kts | 236° |
| 2026-05-06 08:14 | 50.36880 | -95.21072 | 36055 ft | 465 kts | 236° |
| 2026-05-06 08:15 | 50.33141 | -95.29342 | 36057 ft | 466 kts | 236° |
| 2026-05-06 08:15 | 50.29394 | -95.37606 | 36060 ft | 466 kts | 236° |
| 2026-05-06 08:16 | 50.25639 | -95.45858 | 36061 ft | 465 kts | 236° |
| 2026-05-06 08:16 | 50.21885 | -95.54082 | 36055 ft | 465 kts | 236° |
| 2026-05-06 08:17 | 50.18126 | -95.62294 | 36069 ft | 465 kts | 236° |
| 2026-05-06 08:17 | 50.14359 | -95.70500 | 36074 ft | 465 kts | 236° |
| 2026-05-06 08:18 | 50.10587 | -95.78690 | 36076 ft | 465 kts | 236° |
| 2026-05-06 08:18 | 50.06828 | -95.86824 | 36082 ft | 466 kts | 236° |
| 2026-05-06 08:19 | 50.03041 | -95.94993 | 36066 ft | 466 kts | 236° |
| 2026-05-06 08:19 | 49.99247 | -96.03152 | 36077 ft | 465 kts | 236° |
| 2026-05-06 08:20 | 49.95451 | -96.11295 | 36082 ft | 466 kts | 236° |
| 2026-05-06 08:20 | 49.91642 | -96.19438 | 36085 ft | 466 kts | 236° |
| 2026-05-06 08:21 | 49.87830 | -96.27561 | 36085 ft | 466 kts | 236° |
| 2026-05-06 08:21 | 49.84009 | -96.35680 | 36073 ft | 466 kts | 236° |
| 2026-05-06 08:22 | 49.80183 | -96.43784 | 36080 ft | 466 kts | 236° |
| 2026-05-06 08:22 | 49.76349 | -96.51880 | 36085 ft | 466 kts | 236° |
| 2026-05-06 08:23 | 49.72510 | -96.59961 | 36083 ft | 466 kts | 236° |
| 2026-05-06 08:23 | 49.68670 | -96.68021 | 36085 ft | 466 kts | 236° |
| 2026-05-06 08:24 | 49.64820 | -96.76076 | 36072 ft | 466 kts | 236° |
| 2026-05-06 08:24 | 49.60970 | -96.84107 | 36076 ft | 466 kts | 236° |
| 2026-05-06 08:25 | 49.57137 | -96.92081 | 36089 ft | 466 kts | 236° |
| 2026-05-06 08:25 | 49.53271 | -97.00098 | 36083 ft | 466 kts | 235° |
| 2026-05-06 08:26 | 49.49396 | -97.08108 | 36086 ft | 466 kts | 235° |
| 2026-05-06 08:26 | 49.45522 | -97.16093 | 36081 ft | 466 kts | 235° |
| 2026-05-06 08:27 | 49.41639 | -97.24072 | 36096 ft | 466 kts | 235° |
| 2026-05-06 08:27 | 49.37753 | -97.32035 | 36094 ft | 466 kts | 235° |
| 2026-05-06 08:28 | 49.33856 | -97.39995 | 36084 ft | 466 kts | 235° |
| 2026-05-06 08:28 | 49.29955 | -97.47940 | 36080 ft | 467 kts | 235° |
| 2026-05-06 08:29 | 49.26049 | -97.55871 | 36107 ft | 466 kts | 235° |
| 2026-05-06 08:29 | 49.22138 | -97.63789 | 36103 ft | 466 kts | 235° |
| 2026-05-06 08:30 | 49.18224 | -97.71690 | 36102 ft | 466 kts | 235° |
| 2026-05-06 08:30 | 49.14306 | -97.79577 | 36104 ft | 466 kts | 235° |
| 2026-05-06 08:31 | 49.10386 | -97.87441 | 36107 ft | 466 kts | 235° |
| 2026-05-06 08:31 | 49.06455 | -97.95307 | 36105 ft | 466 kts | 235° |
| 2026-05-06 08:32 | 49.02522 | -98.03153 | 36103 ft | 466 kts | 235° |
| 2026-05-06 08:32 | 48.98581 | -98.10993 | 36120 ft | 466 kts | 235° |
| 2026-05-06 08:33 | 48.94632 | -98.18826 | 36117 ft | 466 kts | 235° |
| 2026-05-06 08:33 | 48.90680 | -98.26641 | 36126 ft | 466 kts | 235° |
| 2026-05-06 08:34 | 48.84737 | -98.38351 | 36121 ft | 466 kts | 234° |
| 2026-05-06 08:35 | 48.80770 | -98.46137 | 36127 ft | 466 kts | 234° |
| 2026-05-06 08:35 | 48.76801 | -98.53906 | 36128 ft | 466 kts | 234° |
| 2026-05-06 08:36 | 48.72830 | -98.61657 | 36131 ft | 465 kts | 234° |
| 2026-05-06 08:36 | 48.68856 | -98.69391 | 36130 ft | 465 kts | 234° |
| 2026-05-06 08:37 | 48.64880 | -98.77108 | 36126 ft | 465 kts | 234° |
| 2026-05-06 08:37 | 48.60929 | -98.84752 | 36137 ft | 465 kts | 234° |
| 2026-05-06 08:38 | 48.56944 | -98.92443 | 36140 ft | 465 kts | 234° |
| 2026-05-06 08:38 | 48.52944 | -99.00138 | 36135 ft | 466 kts | 234° |
| 2026-05-06 08:39 | 48.48939 | -99.07823 | 36137 ft | 466 kts | 234° |
| 2026-05-06 08:39 | 48.44926 | -99.15499 | 36132 ft | 466 kts | 234° |
| 2026-05-06 08:40 | 48.40905 | -99.23169 | 36138 ft | 467 kts | 234° |
| 2026-05-06 08:40 | 48.36874 | -99.30839 | 36136 ft | 467 kts | 234° |
| 2026-05-06 08:41 | 48.32839 | -99.38493 | 36137 ft | 467 kts | 234° |
| 2026-05-06 08:41 | 48.28797 | -99.46137 | 36135 ft | 467 kts | 234° |
| 2026-05-06 08:42 | 48.24750 | -99.53769 | 36124 ft | 467 kts | 234° |
| 2026-05-06 08:42 | 48.20701 | -99.61387 | 36128 ft | 467 kts | 234° |
| 2026-05-06 08:43 | 48.16643 | -99.68998 | 36126 ft | 467 kts | 234° |
| 2026-05-06 08:43 | 48.12583 | -99.76592 | 36123 ft | 467 kts | 234° |
| 2026-05-06 08:44 | 48.08519 | -99.84172 | 36104 ft | 467 kts | 234° |
| 2026-05-06 08:44 | 48.04453 | -99.91738 | 36123 ft | 467 kts | 234° |
| 2026-05-06 08:45 | 48.00378 | -99.99304 | 36144 ft | 467 kts | 234° |
| 2026-05-06 08:45 | 47.96602 | -100.07150 | 36130 ft | 465 kts | 238° |
| 2026-05-06 08:46 | 47.92925 | -100.15097 | 36131 ft | 465 kts | 238° |
| 2026-05-06 08:46 | 47.89243 | -100.23022 | 36122 ft | 465 kts | 238° |
| 2026-05-06 08:47 | 47.85545 | -100.30923 | 36130 ft | 465 kts | 238° |
| 2026-05-06 08:47 | 47.81833 | -100.38814 | 36137 ft | 466 kts | 238° |
| 2026-05-06 08:48 | 47.78108 | -100.46703 | 36140 ft | 466 kts | 238° |
| 2026-05-06 08:48 | 47.74380 | -100.54580 | 36140 ft | 466 kts | 238° |
| 2026-05-06 08:49 | 47.70644 | -100.62451 | 36129 ft | 465 kts | 238° |
| 2026-05-06 08:49 | 47.66912 | -100.70290 | 36139 ft | 465 kts | 238° |
| 2026-05-06 08:50 | 47.63196 | -100.78076 | 36142 ft | 465 kts | 238° |
| 2026-05-06 08:50 | 47.59452 | -100.85899 | 36135 ft | 465 kts | 238° |
| 2026-05-06 08:51 | 47.55701 | -100.93712 | 36131 ft | 465 kts | 238° |
| 2026-05-06 08:51 | 47.52557 | -101.00244 | 36142 ft | 465 kts | 237° |
| 2026-05-06 08:52 | 47.48796 | -101.08037 | 36154 ft | 466 kts | 237° |
| 2026-05-06 08:52 | 47.45027 | -101.15825 | 36153 ft | 466 kts | 237° |
| 2026-05-06 08:53 | 47.41252 | -101.23604 | 36148 ft | 465 kts | 237° |
| 2026-05-06 08:53 | 47.37478 | -101.31358 | 36123 ft | 465 kts | 237° |
| 2026-05-06 08:54 | 47.33700 | -101.39098 | 36132 ft | 465 kts | 237° |
| 2026-05-06 08:54 | 47.29919 | -101.46824 | 36131 ft | 465 kts | 237° |
| 2026-05-06 08:55 | 47.26150 | -101.54504 | 36128 ft | 466 kts | 237° |
| 2026-05-06 08:55 | 47.22327 | -101.62271 | 36129 ft | 466 kts | 237° |
| 2026-05-06 08:56 | 47.18542 | -101.69940 | 36126 ft | 466 kts | 237° |
| 2026-05-06 08:56 | 47.14733 | -101.77636 | 36134 ft | 466 kts | 237° |
| 2026-05-06 08:57 | 47.10919 | -101.85320 | 36140 ft | 466 kts | 237° |
| 2026-05-06 08:57 | 47.07100 | -101.92993 | 36142 ft | 465 kts | 237° |
| 2026-05-06 08:58 | 47.03275 | -102.00658 | 36146 ft | 465 kts | 237° |
| 2026-05-06 08:58 | 46.99448 | -102.08305 | 36139 ft | 465 kts | 237° |
| 2026-05-06 08:59 | 46.95614 | -102.15944 | 36137 ft | 465 kts | 237° |
| 2026-05-06 08:59 | 46.91782 | -102.23559 | 36143 ft | 464 kts | 237° |
| 2026-05-06 09:00 | 46.87950 | -102.31154 | 36133 ft | 463 kts | 237° |
| 2026-05-06 09:00 | 46.84127 | -102.38707 | 36115 ft | 462 kts | 237° |
| 2026-05-06 09:01 | 46.80299 | -102.46253 | 36108 ft | 462 kts | 236° |
| 2026-05-06 09:01 | 46.76468 | -102.53784 | 36100 ft | 463 kts | 236° |
| 2026-05-06 09:02 | 46.72626 | -102.61317 | 36090 ft | 463 kts | 236° |
| 2026-05-06 09:02 | 46.68769 | -102.68857 | 36063 ft | 464 kts | 236° |
| 2026-05-06 09:03 | 46.64908 | -102.76385 | 36102 ft | 465 kts | 236° |
| 2026-05-06 09:03 | 46.61034 | -102.83918 | 36097 ft | 465 kts | 236° |
| 2026-05-06 09:04 | 46.57154 | -102.91441 | 36106 ft | 465 kts | 236° |
| 2026-05-06 09:04 | 46.53271 | -102.98949 | 36135 ft | 464 kts | 236° |
| 2026-05-06 09:05 | 46.49414 | -103.06390 | 36147 ft | 464 kts | 236° |
| 2026-05-06 09:05 | 46.45499 | -103.13921 | 36155 ft | 465 kts | 236° |
| 2026-05-06 09:06 | 46.41624 | -103.21354 | 36156 ft | 465 kts | 236° |
| 2026-05-06 09:06 | 46.37724 | -103.28818 | 36132 ft | 464 kts | 236° |
| 2026-05-06 09:07 | 46.33826 | -103.36256 | 36104 ft | 463 kts | 236° |
| 2026-05-06 09:07 | 46.29925 | -103.43680 | 36118 ft | 463 kts | 236° |
| 2026-05-06 09:08 | 46.26022 | -103.51088 | 36122 ft | 463 kts | 236° |
| 2026-05-06 09:08 | 46.22112 | -103.58492 | 36134 ft | 464 kts | 236° |
| 2026-05-06 09:09 | 46.18194 | -103.65890 | 36145 ft | 464 kts | 236° |
| 2026-05-06 09:09 | 46.14270 | -103.73280 | 36160 ft | 464 kts | 236° |
| 2026-05-06 09:10 | 46.10339 | -103.80664 | 36191 ft | 464 kts | 236° |
| 2026-05-06 09:10 | 46.06401 | -103.88044 | 36183 ft | 464 kts | 236° |
| 2026-05-06 09:11 | 46.02459 | -103.95412 | 36186 ft | 464 kts | 236° |
| 2026-05-06 09:11 | 45.98301 | -104.02520 | 36184 ft | 467 kts | 227° |
| 2026-05-06 09:12 | 45.93594 | -104.08980 | 36200 ft | 468 kts | 226° |
| 2026-05-06 09:12 | 45.88857 | -104.15415 | 36201 ft | 469 kts | 226° |
| 2026-05-06 09:13 | 45.84127 | -104.21881 | 36201 ft | 470 kts | 227° |
| 2026-05-06 09:13 | 45.79402 | -104.28360 | 36206 ft | 470 kts | 227° |
| 2026-05-06 09:14 | 45.74667 | -104.34845 | 36196 ft | 471 kts | 227° |
| 2026-05-06 09:14 | 45.69921 | -104.41329 | 36205 ft | 472 kts | 227° |
| 2026-05-06 09:15 | 45.65194 | -104.47769 | 36203 ft | 473 kts | 227° |
| 2026-05-06 09:15 | 45.60432 | -104.54238 | 36202 ft | 472 kts | 226° |
| 2026-05-06 09:16 | 45.55673 | -104.60687 | 36190 ft | 471 kts | 226° |
| 2026-05-06 09:16 | 45.50920 | -104.67114 | 36196 ft | 471 kts | 226° |
| 2026-05-06 09:17 | 45.46169 | -104.73523 | 36197 ft | 471 kts | 226° |
| 2026-05-06 09:17 | 45.41407 | -104.79930 | 36212 ft | 471 kts | 226° |
| 2026-05-06 09:18 | 45.36647 | -104.86320 | 36218 ft | 470 kts | 226° |
| 2026-05-06 09:18 | 45.31889 | -104.92691 | 36210 ft | 470 kts | 226° |
| 2026-05-06 09:19 | 45.27130 | -104.99047 | 36227 ft | 470 kts | 226° |
| 2026-05-06 09:19 | 45.22360 | -105.05405 | 36224 ft | 471 kts | 226° |
| 2026-05-06 09:20 | 45.17579 | -105.11759 | 36229 ft | 471 kts | 226° |
| 2026-05-06 09:20 | 45.12793 | -105.18106 | 36233 ft | 471 kts | 226° |
| 2026-05-06 09:21 | 45.08012 | -105.24430 | 36234 ft | 470 kts | 226° |
| 2026-05-06 09:21 | 45.03245 | -105.30721 | 36235 ft | 468 kts | 226° |
| 2026-05-06 09:22 | 44.98482 | -105.36992 | 36229 ft | 467 kts | 226° |
| 2026-05-06 09:22 | 44.93728 | -105.43236 | 36215 ft | 467 kts | 226° |
| 2026-05-06 09:23 | 44.88966 | -105.49477 | 36238 ft | 467 kts | 226° |
| 2026-05-06 09:23 | 44.84196 | -105.55714 | 36237 ft | 468 kts | 226° |
| 2026-05-06 09:24 | 44.79414 | -105.61951 | 36243 ft | 469 kts | 226° |
| 2026-05-06 09:24 | 44.74621 | -105.68187 | 36235 ft | 469 kts | 226° |
| 2026-05-06 09:25 | 44.69854 | -105.74375 | 36231 ft | 470 kts | 226° |
| 2026-05-06 09:25 | 44.65049 | -105.80599 | 36235 ft | 470 kts | 226° |
| 2026-05-06 09:26 | 44.60239 | -105.86813 | 36226 ft | 470 kts | 226° |
| 2026-05-06 09:26 | 44.55433 | -105.93009 | 36223 ft | 469 kts | 226° |
| 2026-05-06 09:27 | 44.50627 | -105.99193 | 36201 ft | 468 kts | 226° |
| 2026-05-06 09:27 | 44.45770 | -106.05269 | 36211 ft | 469 kts | 224° |
| 2026-05-06 09:28 | 44.40841 | -106.11252 | 36216 ft | 469 kts | 224° |
| 2026-05-06 09:28 | 44.35902 | -106.17233 | 36209 ft | 469 kts | 224° |
| 2026-05-06 09:29 | 44.30976 | -106.23211 | 36202 ft | 469 kts | 224° |
| 2026-05-06 09:29 | 44.26049 | -106.29193 | 36203 ft | 470 kts | 224° |
| 2026-05-06 09:30 | 44.21107 | -106.35183 | 36206 ft | 471 kts | 224° |
| 2026-05-06 09:30 | 44.16152 | -106.41172 | 36201 ft | 472 kts | 224° |
| 2026-05-06 09:31 | 44.11183 | -106.47163 | 36191 ft | 472 kts | 224° |
| 2026-05-06 09:31 | 44.06216 | -106.53136 | 36170 ft | 472 kts | 224° |
| 2026-05-06 09:32 | 44.01247 | -106.59099 | 36188 ft | 472 kts | 224° |
| 2026-05-06 09:32 | 43.96276 | -106.65054 | 36188 ft | 472 kts | 224° |
| 2026-05-06 09:33 | 43.91299 | -106.70999 | 36185 ft | 472 kts | 224° |
| 2026-05-06 09:33 | 43.86356 | -106.76891 | 36172 ft | 475 kts | 224° |
| 2026-05-06 09:34 | 43.81256 | -106.82964 | 36338 ft | 491 kts | 224° |
| 2026-05-06 09:34 | 43.78652 | -106.86058 | 36515 ft | 495 kts | 224° |
| 2026-05-06 09:34 | 43.76030 | -106.89165 | 36796 ft | 497 kts | 224° |
| 2026-05-06 09:34 | 43.73410 | -106.92266 | 37196 ft | 495 kts | 224° |
| 2026-05-06 09:35 | 43.70798 | -106.95351 | 37666 ft | 492 kts | 224° |
| 2026-05-06 09:35 | 43.68213 | -106.98401 | 38134 ft | 489 kts | 224° |
| 2026-05-06 09:35 | 43.65631 | -107.01445 | 38494 ft | 489 kts | 224° |
| 2026-05-06 09:35 | 43.63041 | -107.04498 | 38809 ft | 489 kts | 224° |
| 2026-05-06 09:36 | 43.60451 | -107.07548 | 39018 ft | 490 kts | 224° |
| 2026-05-06 09:36 | 43.57859 | -107.10598 | 39260 ft | 490 kts | 224° |
| 2026-05-06 09:36 | 43.55265 | -107.13646 | 39559 ft | 489 kts | 224° |
| 2026-05-06 09:36 | 43.52676 | -107.16682 | 39867 ft | 488 kts | 224° |
| 2026-05-06 09:37 | 43.50100 | -107.19701 | 40098 ft | 487 kts | 224° |
| 2026-05-06 09:37 | 43.44906 | -107.25778 | 40179 ft | 490 kts | 224° |
| 2026-05-06 09:38 | 43.40596 | -107.30807 | 40177 ft | 487 kts | 224° |
| 2026-05-06 09:38 | 43.35440 | -107.36811 | 40181 ft | 484 kts | 224° |
| 2026-05-06 09:39 | 43.30301 | -107.42784 | 40172 ft | 484 kts | 224° |
| 2026-05-06 09:39 | 43.25153 | -107.48754 | 40170 ft | 486 kts | 224° |
| 2026-05-06 09:40 | 43.19979 | -107.54740 | 40185 ft | 487 kts | 224° |
| 2026-05-06 09:40 | 43.12175 | -107.63742 | 40171 ft | 490 kts | 224° |
| 2026-05-06 09:41 | 43.06956 | -107.69744 | 40171 ft | 490 kts | 224° |
| 2026-05-06 09:41 | 43.01735 | -107.75733 | 40143 ft | 490 kts | 224° |
| 2026-05-06 09:42 | 42.96503 | -107.81722 | 40165 ft | 491 kts | 224° |
| 2026-05-06 09:42 | 42.91264 | -107.87709 | 40174 ft | 492 kts | 224° |
| 2026-05-06 09:43 | 42.86010 | -107.93696 | 40174 ft | 492 kts | 224° |
| 2026-05-06 09:43 | 42.80754 | -107.99672 | 40175 ft | 492 kts | 224° |
| 2026-05-06 09:44 | 42.75489 | -108.05644 | 40172 ft | 492 kts | 224° |
| 2026-05-06 09:44 | 42.70232 | -108.11592 | 40175 ft | 491 kts | 224° |
| 2026-05-06 09:45 | 42.64985 | -108.17518 | 40180 ft | 490 kts | 224° |
| 2026-05-06 09:45 | 42.59743 | -108.23424 | 40175 ft | 490 kts | 224° |
| 2026-05-06 09:46 | 42.54504 | -108.29313 | 40163 ft | 489 kts | 223° |
| 2026-05-06 09:46 | 42.49264 | -108.35190 | 40171 ft | 488 kts | 223° |
| 2026-05-06 09:47 | 42.44041 | -108.41035 | 40183 ft | 487 kts | 223° |
| 2026-05-06 09:47 | 42.38823 | -108.46862 | 40171 ft | 487 kts | 224° |
| 2026-05-06 09:48 | 42.33585 | -108.52698 | 40176 ft | 488 kts | 223° |
| 2026-05-06 09:48 | 42.28371 | -108.58495 | 40175 ft | 489 kts | 224° |
| 2026-05-06 09:49 | 42.23079 | -108.64364 | 40182 ft | 490 kts | 223° |
| 2026-05-06 09:49 | 42.17809 | -108.70196 | 40178 ft | 490 kts | 223° |
| 2026-05-06 09:50 | 42.12563 | -108.75989 | 40171 ft | 491 kts | 223° |
| 2026-05-06 09:50 | 42.07280 | -108.81808 | 40160 ft | 491 kts | 224° |
| 2026-05-06 09:51 | 42.01984 | -108.87632 | 40166 ft | 492 kts | 224° |
| 2026-05-06 09:51 | 41.96670 | -108.93460 | 40157 ft | 493 kts | 224° |
| 2026-05-06 09:52 | 41.91353 | -108.99279 | 40158 ft | 493 kts | 223° |
| 2026-05-06 09:52 | 41.86027 | -109.05095 | 40146 ft | 494 kts | 223° |
| 2026-05-06 09:53 | 41.80696 | -109.10904 | 40119 ft | 494 kts | 223° |
| 2026-05-06 09:53 | 41.75360 | -109.16704 | 40122 ft | 494 kts | 223° |
| 2026-05-06 09:54 | 41.70007 | -109.22513 | 40122 ft | 495 kts | 223° |
| 2026-05-06 09:54 | 41.64691 | -109.28266 | 40122 ft | 495 kts | 223° |
| 2026-05-06 09:55 | 41.59327 | -109.34059 | 40132 ft | 496 kts | 223° |
| 2026-05-06 09:55 | 41.53959 | -109.39844 | 40119 ft | 495 kts | 223° |
| 2026-05-06 09:56 | 41.48605 | -109.45600 | 40131 ft | 495 kts | 223° |
| 2026-05-06 09:56 | 41.43245 | -109.51350 | 40122 ft | 494 kts | 223° |
| 2026-05-06 09:57 | 41.37890 | -109.57084 | 40134 ft | 494 kts | 223° |
| 2026-05-06 09:57 | 41.32529 | -109.62812 | 40134 ft | 494 kts | 223° |
| 2026-05-06 09:58 | 41.27172 | -109.68522 | 40133 ft | 493 kts | 222° |
| 2026-05-06 09:58 | 41.21824 | -109.74209 | 40142 ft | 492 kts | 222° |
| 2026-05-06 09:59 | 41.16478 | -109.79883 | 40140 ft | 491 kts | 222° |
| 2026-05-06 09:59 | 41.11134 | -109.85543 | 40143 ft | 492 kts | 223° |
| 2026-05-06 10:00 | 41.05773 | -109.91210 | 40149 ft | 494 kts | 223° |
| 2026-05-06 10:00 | 41.00393 | -109.96885 | 40130 ft | 495 kts | 223° |
| 2026-05-06 10:01 | 40.94988 | -110.02571 | 40125 ft | 497 kts | 223° |
| 2026-05-06 10:01 | 40.89574 | -110.08255 | 40076 ft | 497 kts | 222° |
| 2026-05-06 10:02 | 40.84162 | -110.13925 | 40050 ft | 497 kts | 223° |
| 2026-05-06 10:02 | 40.78749 | -110.19582 | 40041 ft | 495 kts | 222° |
| 2026-05-06 10:03 | 40.73360 | -110.25204 | 40025 ft | 493 kts | 222° |
| 2026-05-06 10:03 | 40.67979 | -110.30806 | 40007 ft | 492 kts | 222° |
| 2026-05-06 10:04 | 40.62642 | -110.36351 | 39984 ft | 491 kts | 222° |
| 2026-05-06 10:04 | 40.57239 | -110.41952 | 39961 ft | 492 kts | 222° |
| 2026-05-06 10:05 | 40.51896 | -110.47480 | 39943 ft | 491 kts | 223° |
| 2026-05-06 10:05 | 40.46516 | -110.53034 | 39938 ft | 492 kts | 223° |
| 2026-05-06 10:06 | 40.41121 | -110.58593 | 39948 ft | 494 kts | 223° |
| 2026-05-06 10:06 | 40.35705 | -110.64161 | 39927 ft | 495 kts | 223° |
| 2026-05-06 10:07 | 40.30271 | -110.69736 | 39920 ft | 496 kts | 222° |
| 2026-05-06 10:07 | 40.24840 | -110.75294 | 39920 ft | 495 kts | 222° |
| 2026-05-06 10:08 | 40.19420 | -110.80828 | 39889 ft | 493 kts | 222° |
| 2026-05-06 10:08 | 40.14010 | -110.86344 | 39898 ft | 493 kts | 222° |
| 2026-05-06 10:09 | 40.08595 | -110.91855 | 39902 ft | 494 kts | 222° |
| 2026-05-06 10:09 | 40.03169 | -110.97363 | 39891 ft | 494 kts | 221° |
| 2026-05-06 10:10 | 39.97757 | -111.02844 | 39901 ft | 491 kts | 221° |
| 2026-05-06 10:10 | 39.92370 | -111.08289 | 39901 ft | 489 kts | 221° |
| 2026-05-06 10:11 | 39.87007 | -111.13702 | 39876 ft | 487 kts | 221° |
| 2026-05-06 10:11 | 39.81642 | -111.19105 | 39892 ft | 489 kts | 221° |
| 2026-05-06 10:12 | 39.76249 | -111.24527 | 39884 ft | 491 kts | 221° |
| 2026-05-06 10:12 | 39.70831 | -111.29961 | 39893 ft | 493 kts | 221° |
| 2026-05-06 10:13 | 39.65394 | -111.35402 | 39884 ft | 494 kts | 221° |
| 2026-05-06 10:13 | 39.59941 | -111.40847 | 39891 ft | 494 kts | 221° |
| 2026-05-06 10:14 | 39.54494 | -111.46275 | 39889 ft | 494 kts | 221° |
| 2026-05-06 10:14 | 39.49046 | -111.51694 | 39881 ft | 493 kts | 221° |
| 2026-05-06 10:15 | 39.43607 | -111.57093 | 39883 ft | 492 kts | 221° |
| 2026-05-06 10:15 | 39.38176 | -111.62473 | 39885 ft | 491 kts | 221° |
| 2026-05-06 10:16 | 39.32752 | -111.67836 | 39874 ft | 491 kts | 221° |
| 2026-05-06 10:16 | 39.27361 | -111.73156 | 39875 ft | 491 kts | 221° |
| 2026-05-06 10:17 | 39.21936 | -111.78499 | 39874 ft | 490 kts | 221° |
| 2026-05-06 10:17 | 39.16520 | -111.83823 | 39863 ft | 489 kts | 220° |
| 2026-05-06 10:18 | 39.11100 | -111.89139 | 39865 ft | 490 kts | 220° |
| 2026-05-06 10:18 | 39.05680 | -111.94447 | 39875 ft | 490 kts | 220° |
| 2026-05-06 10:19 | 39.00245 | -111.99759 | 39908 ft | 490 kts | 220° |
| 2026-05-06 10:19 | 38.94915 | -112.05213 | 39943 ft | 489 kts | 223° |
| 2026-05-06 10:20 | 38.89690 | -112.10812 | 39963 ft | 489 kts | 223° |
| 2026-05-06 10:20 | 38.84465 | -112.16395 | 39963 ft | 490 kts | 223° |
| 2026-05-06 10:21 | 38.79203 | -112.21958 | 39970 ft | 491 kts | 223° |
| 2026-05-06 10:21 | 38.73908 | -112.27521 | 39956 ft | 492 kts | 223° |
| 2026-05-06 10:22 | 38.68611 | -112.33072 | 39931 ft | 491 kts | 222° |
| 2026-05-06 10:22 | 38.63333 | -112.38592 | 39868 ft | 488 kts | 222° |
| 2026-05-06 10:23 | 38.58089 | -112.44069 | 39866 ft | 486 kts | 222° |
| 2026-05-06 10:23 | 38.52857 | -112.49525 | 39863 ft | 486 kts | 222° |
| 2026-05-06 10:24 | 38.47593 | -112.55006 | 39883 ft | 490 kts | 222° |
| 2026-05-06 10:24 | 38.43191 | -112.59580 | 39904 ft | 493 kts | 222° |
| 2026-05-06 10:25 | 38.37860 | -112.65107 | 39928 ft | 495 kts | 222° |
| 2026-05-06 10:25 | 38.32510 | -112.70641 | 39944 ft | 496 kts | 222° |
| 2026-05-06 10:26 | 38.27156 | -112.76170 | 39948 ft | 495 kts | 222° |
| 2026-05-06 10:26 | 38.21809 | -112.81680 | 39934 ft | 495 kts | 222° |
| 2026-05-06 10:27 | 38.16457 | -112.87187 | 39934 ft | 494 kts | 221° |
| 2026-05-06 10:27 | 38.11119 | -112.92668 | 39913 ft | 492 kts | 221° |
| 2026-05-06 10:28 | 38.05799 | -112.98119 | 39896 ft | 491 kts | 221° |
| 2026-05-06 10:28 | 38.00489 | -113.03550 | 39902 ft | 489 kts | 221° |
| 2026-05-06 10:29 | 37.95194 | -113.08956 | 39960 ft | 489 kts | 221° |
| 2026-05-06 10:29 | 37.89888 | -113.14363 | 39971 ft | 490 kts | 221° |
| 2026-05-06 10:30 | 37.84566 | -113.19776 | 40006 ft | 491 kts | 220° |
| 2026-05-06 10:30 | 37.79242 | -113.25179 | 40015 ft | 491 kts | 220° |
| 2026-05-06 10:31 | 37.73907 | -113.30583 | 40006 ft | 491 kts | 220° |
| 2026-05-06 10:31 | 37.68577 | -113.35973 | 39984 ft | 490 kts | 220° |
| 2026-05-06 10:32 | 37.63254 | -113.41346 | 39963 ft | 490 kts | 220° |
| 2026-05-06 10:32 | 37.57934 | -113.46704 | 39904 ft | 489 kts | 220° |
| 2026-05-06 10:33 | 37.52627 | -113.52040 | 39909 ft | 488 kts | 220° |
| 2026-05-06 10:33 | 37.47324 | -113.57362 | 39916 ft | 488 kts | 220° |
| 2026-05-06 10:34 | 37.42017 | -113.62679 | 39912 ft | 488 kts | 220° |
| 2026-05-06 10:34 | 37.36704 | -113.67991 | 39916 ft | 488 kts | 220° |
| 2026-05-06 10:35 | 37.31389 | -113.73295 | 39924 ft | 487 kts | 220° |
| 2026-05-06 10:35 | 37.26113 | -113.78552 | 39912 ft | 487 kts | 220° |
| 2026-05-06 10:36 | 37.20802 | -113.83831 | 39923 ft | 487 kts | 220° |
| 2026-05-06 10:36 | 37.15484 | -113.89110 | 39911 ft | 488 kts | 220° |
| 2026-05-06 10:37 | 37.10154 | -113.94391 | 39897 ft | 489 kts | 220° |
| 2026-05-06 10:37 | 37.04819 | -113.99666 | 39901 ft | 488 kts | 220° |
| 2026-05-06 10:38 | 36.99515 | -114.04899 | 39879 ft | 483 kts | 220° |
| 2026-05-06 10:38 | 36.94265 | -114.10073 | 39876 ft | 479 kts | 220° |
| 2026-05-06 10:39 | 36.89039 | -114.15214 | 39878 ft | 477 kts | 220° |
| 2026-05-06 10:39 | 36.83820 | -114.20338 | 39884 ft | 478 kts | 220° |
| 2026-05-06 10:40 | 36.78590 | -114.25465 | 39882 ft | 479 kts | 220° |
| 2026-05-06 10:40 | 36.73166 | -114.30311 | 39872 ft | 481 kts | 213° |
| 2026-05-06 10:41 | 36.67434 | -114.34626 | 39873 ft | 482 kts | 212° |
| 2026-05-06 10:41 | 36.61694 | -114.38943 | 39850 ft | 482 kts | 213° |
| 2026-05-06 10:42 | 36.55975 | -114.43291 | 39874 ft | 482 kts | 213° |
| 2026-05-06 10:42 | 36.50257 | -114.47643 | 39861 ft | 482 kts | 213° |
| 2026-05-06 10:43 | 36.44526 | -114.51997 | 39880 ft | 484 kts | 213° |
| 2026-05-06 10:44 | 36.35921 | -114.58619 | 39861 ft | 486 kts | 214° |
| 2026-05-06 10:44 | 36.30178 | -114.63040 | 39872 ft | 486 kts | 214° |
| 2026-05-06 10:45 | 36.24423 | -114.67454 | 39891 ft | 486 kts | 214° |
| 2026-05-06 10:45 | 36.18663 | -114.71860 | 39889 ft | 487 kts | 214° |
| 2026-05-06 10:46 | 36.12903 | -114.76262 | 39941 ft | 486 kts | 214° |
| 2026-05-06 10:46 | 36.07145 | -114.80655 | 39973 ft | 486 kts | 214° |
| 2026-05-06 10:47 | 36.01386 | -114.85016 | 39987 ft | 486 kts | 212° |
| 2026-05-06 10:47 | 35.95221 | -114.88489 | 39977 ft | 488 kts | 201° |
| 2026-05-06 10:48 | 35.88860 | -114.91235 | 39979 ft | 486 kts | 201° |
| 2026-05-06 10:48 | 35.82491 | -114.94002 | 39955 ft | 485 kts | 201° |
| 2026-05-06 10:49 | 35.76145 | -114.96806 | 39982 ft | 484 kts | 201° |
| 2026-05-06 10:49 | 35.69809 | -114.99614 | 39981 ft | 484 kts | 201° |
| 2026-05-06 10:50 | 35.63474 | -115.02414 | 39994 ft | 484 kts | 201° |
| 2026-05-06 10:50 | 35.57128 | -115.05214 | 40006 ft | 485 kts | 201° |
| 2026-05-06 10:51 | 35.50867 | -115.08288 | 39998 ft | 483 kts | 213° |
| 2026-05-06 10:51 | 35.48298 | -115.10869 | 40005 ft | 475 kts | 230° |
| 2026-05-06 10:51 | 35.46091 | -115.13888 | 40016 ft | 476 kts | 230° |
| 2026-05-06 10:52 | 35.41617 | -115.19943 | 40031 ft | 481 kts | 230° |
| 2026-05-06 10:52 | 35.37038 | -115.25967 | 40034 ft | 485 kts | 229° |
| 2026-05-06 10:53 | 35.32405 | -115.31985 | 40042 ft | 486 kts | 229° |
| 2026-05-06 10:53 | 35.27757 | -115.38007 | 40034 ft | 486 kts | 229° |
| 2026-05-06 10:54 | 35.23116 | -115.44020 | 40051 ft | 486 kts | 229° |
| 2026-05-06 10:54 | 35.18484 | -115.50014 | 40047 ft | 485 kts | 229° |
| 2026-05-06 10:55 | 35.13854 | -115.55995 | 40061 ft | 484 kts | 229° |
| 2026-05-06 10:55 | 35.09218 | -115.61954 | 39695 ft | 488 kts | 228° |
| 2026-05-06 10:55 | 35.06872 | -115.64951 | 39275 ft | 486 kts | 228° |
| 2026-05-06 10:56 | 35.04571 | -115.67887 | 38852 ft | 483 kts | 229° |
| 2026-05-06 10:56 | 35.02254 | -115.70840 | 38371 ft | 481 kts | 228° |
| 2026-05-06 10:56 | 34.99950 | -115.73778 | 37926 ft | 477 kts | 228° |
| 2026-05-06 10:56 | 34.97667 | -115.76687 | 37526 ft | 473 kts | 228° |
| 2026-05-06 10:57 | 34.95402 | -115.79572 | 37122 ft | 469 kts | 228° |
| 2026-05-06 10:57 | 34.93157 | -115.82430 | 36734 ft | 465 kts | 228° |
| 2026-05-06 10:57 | 34.90928 | -115.85266 | 36348 ft | 461 kts | 228° |
| 2026-05-06 10:57 | 34.88717 | -115.88076 | 35968 ft | 458 kts | 228° |
| 2026-05-06 10:58 | 34.86518 | -115.90868 | 35585 ft | 455 kts | 228° |
| 2026-05-06 10:58 | 34.84330 | -115.93645 | 35189 ft | 453 kts | 227° |
| 2026-05-06 10:58 | 34.82157 | -115.96401 | 34787 ft | 451 kts | 227° |
| 2026-05-06 10:58 | 34.79986 | -115.99153 | 34426 ft | 451 kts | 227° |
| 2026-05-06 10:59 | 34.77795 | -116.01927 | 34023 ft | 459 kts | 227° |
| 2026-05-06 10:59 | 34.75560 | -116.04760 | 33555 ft | 467 kts | 227° |
| 2026-05-06 10:59 | 34.73322 | -116.07609 | 33104 ft | 465 kts | 227° |
| 2026-05-06 10:59 | 34.71099 | -116.10441 | 32703 ft | 462 kts | 227° |
| 2026-05-06 11:00 | 34.68886 | -116.13261 | 32283 ft | 459 kts | 227° |
| 2026-05-06 11:00 | 34.66691 | -116.16054 | 31874 ft | 456 kts | 227° |
| 2026-05-06 11:00 | 34.64504 | -116.18835 | 31482 ft | 454 kts | 227° |
| 2026-05-06 11:00 | 34.62329 | -116.21597 | 31083 ft | 451 kts | 227° |
| 2026-05-06 11:01 | 34.60166 | -116.24342 | 30692 ft | 449 kts | 227° |
| 2026-05-06 11:01 | 34.58007 | -116.27079 | 30298 ft | 447 kts | 227° |
| 2026-05-06 11:01 | 34.55862 | -116.29796 | 29883 ft | 445 kts | 227° |
| 2026-05-06 11:01 | 34.53727 | -116.32498 | 29408 ft | 442 kts | 227° |
| 2026-05-06 11:02 | 34.51606 | -116.35181 | 28991 ft | 438 kts | 227° |
| 2026-05-06 11:02 | 34.49505 | -116.37836 | 28527 ft | 435 kts | 227° |
| 2026-05-06 11:02 | 34.47420 | -116.40470 | 28112 ft | 431 kts | 227° |
| 2026-05-06 11:02 | 34.45376 | -116.43050 | 27694 ft | 429 kts | 227° |
| 2026-05-06 11:03 | 34.43291 | -116.45678 | 27261 ft | 426 kts | 227° |
| 2026-05-06 11:03 | 34.41330 | -116.48356 | 26827 ft | 422 kts | 237° |
| 2026-05-06 11:03 | 34.39928 | -116.51430 | 26421 ft | 415 kts | 248° |
| 2026-05-06 11:03 | 34.38736 | -116.54554 | 26021 ft | 413 kts | 248° |
| 2026-05-06 11:04 | 34.37513 | -116.57735 | 25596 ft | 411 kts | 248° |
| 2026-05-06 11:04 | 34.36290 | -116.60806 | 25193 ft | 410 kts | 247° |
| 2026-05-06 11:04 | 34.35026 | -116.63893 | 24789 ft | 409 kts | 246° |
| 2026-05-06 11:04 | 34.33753 | -116.66970 | 24390 ft | 408 kts | 246° |
| 2026-05-06 11:05 | 34.32493 | -116.70038 | 23982 ft | 407 kts | 247° |
| 2026-05-06 11:05 | 34.31255 | -116.73111 | 23556 ft | 407 kts | 248° |
| 2026-05-06 11:05 | 34.30022 | -116.76188 | 23088 ft | 406 kts | 247° |
| 2026-05-06 11:05 | 34.28793 | -116.79253 | 22668 ft | 404 kts | 247° |
| 2026-05-06 11:06 | 34.27572 | -116.82294 | 22230 ft | 401 kts | 247° |
| 2026-05-06 11:06 | 34.26357 | -116.85312 | 21826 ft | 398 kts | 247° |
| 2026-05-06 11:06 | 34.25148 | -116.88309 | 21411 ft | 395 kts | 247° |
| 2026-05-06 11:06 | 34.23946 | -116.91287 | 21024 ft | 392 kts | 247° |
| 2026-05-06 11:07 | 34.22753 | -116.94239 | 20623 ft | 390 kts | 247° |
| 2026-05-06 11:07 | 34.21564 | -116.97178 | 20225 ft | 388 kts | 247° |
| 2026-05-06 11:07 | 34.20473 | -117.00140 | 19818 ft | 384 kts | 253° |
| 2026-05-06 11:07 | 34.19644 | -117.03186 | 19437 ft | 380 kts | 257° |
| 2026-05-06 11:08 | 34.18899 | -117.06242 | 19015 ft | 378 kts | 257° |
| 2026-05-06 11:08 | 34.18134 | -117.09273 | 18622 ft | 376 kts | 256° |
| 2026-05-06 11:08 | 34.17339 | -117.12273 | 18222 ft | 374 kts | 255° |
| 2026-05-06 11:08 | 34.16533 | -117.15244 | 17777 ft | 372 kts | 255° |
| 2026-05-06 11:09 | 34.15721 | -117.18203 | 17343 ft | 370 kts | 255° |
| 2026-05-06 11:09 | 34.14912 | -117.21135 | 16963 ft | 367 kts | 255° |
| 2026-05-06 11:09 | 34.14110 | -117.24041 | 16577 ft | 363 kts | 255° |
| 2026-05-06 11:09 | 34.13315 | -117.26927 | 16177 ft | 361 kts | 255° |
| 2026-05-06 11:10 | 34.12527 | -117.29785 | 15788 ft | 358 kts | 255° |
| 2026-05-06 11:10 | 34.11741 | -117.32634 | 15391 ft | 356 kts | 254° |
| 2026-05-06 11:10 | 34.10962 | -117.35456 | 14996 ft | 354 kts | 254° |
| 2026-05-06 11:10 | 34.10197 | -117.38268 | 14599 ft | 352 kts | 255° |
| 2026-05-06 11:11 | 34.09492 | -117.41087 | 14234 ft | 349 kts | 256° |
| 2026-05-06 11:11 | 34.08812 | -117.43847 | 14118 ft | 337 kts | 256° |
| 2026-05-06 11:11 | 34.08372 | -117.45619 | 14101 ft | 328 kts | 256° |
| 2026-05-06 11:11 | 34.07717 | -117.48242 | 14092 ft | 326 kts | 256° |
| 2026-05-06 11:12 | 34.06758 | -117.51678 | 14107 ft | 328 kts | 250° |
| 2026-05-06 11:12 | 34.05858 | -117.54178 | 13863 ft | 321 kts | 248° |
| 2026-05-06 11:12 | 34.04949 | -117.56593 | 13658 ft | 310 kts | 248° |
| 2026-05-06 11:12 | 34.04336 | -117.58198 | 13670 ft | 315 kts | 248° |
| 2026-05-06 11:13 | 34.03100 | -117.61469 | 13686 ft | 328 kts | 251° |
| 2026-05-06 11:13 | 34.02543 | -117.63200 | 13687 ft | 327 kts | 252° |
| 2026-05-06 11:13 | 34.01764 | -117.65768 | 13701 ft | 326 kts | 253° |
| 2026-05-06 11:13 | 34.00997 | -117.68334 | 13700 ft | 325 kts | 253° |
| 2026-05-06 11:14 | 34.00236 | -117.70891 | 13695 ft | 324 kts | 253° |
| 2026-05-06 11:14 | 33.99472 | -117.73468 | 13711 ft | 331 kts | 253° |
| 2026-05-06 11:14 | 33.98709 | -117.76051 | 13712 ft | 330 kts | 253° |
| 2026-05-06 11:14 | 33.97937 | -117.78665 | 13681 ft | 325 kts | 253° |
| 2026-05-06 11:15 | 33.97181 | -117.81219 | 13678 ft | 324 kts | 253° |
| 2026-05-06 11:15 | 33.96432 | -117.83749 | 13683 ft | 326 kts | 253° |
| 2026-05-06 11:15 | 33.95671 | -117.86320 | 13688 ft | 326 kts | 253° |
| 2026-05-06 11:15 | 33.94906 | -117.88911 | 13417 ft | 330 kts | 253° |
| 2026-05-06 11:16 | 33.94142 | -117.91525 | 12957 ft | 332 kts | 253° |
| 2026-05-06 11:16 | 33.93379 | -117.94153 | 12458 ft | 334 kts | 253° |
| 2026-05-06 11:16 | 33.92617 | -117.96800 | 11961 ft | 335 kts | 253° |
| 2026-05-06 11:16 | 33.91861 | -117.99462 | 11474 ft | 337 kts | 253° |
| 2026-05-06 11:17 | 33.91120 | -118.02092 | 10958 ft | 325 kts | 253° |
| 2026-05-06 11:17 | 33.90416 | -118.04617 | 10468 ft | 313 kts | 253° |
| 2026-05-06 11:17 | 33.89739 | -118.07069 | 9983 ft | 305 kts | 253° |
| 2026-05-06 11:17 | 33.89089 | -118.09489 | 9462 ft | 303 kts | 253° |
| 2026-05-06 11:18 | 33.88437 | -118.11935 | 8940 ft | 311 kts | 253° |
| 2026-05-06 11:18 | 33.87776 | -118.14423 | 8472 ft | 314 kts | 253° |
| 2026-05-06 11:18 | 33.87112 | -118.16923 | 8114 ft | 311 kts | 253° |
| 2026-05-06 11:18 | 33.86458 | -118.19379 | 7841 ft | 306 kts | 253° |
| 2026-05-06 11:19 | 33.85812 | -118.21797 | 7551 ft | 301 kts | 253° |
| 2026-05-06 11:19 | 33.85258 | -118.24196 | 7290 ft | 295 kts | 258° |
| 2026-05-06 11:19 | 33.84838 | -118.26589 | 7032 ft | 290 kts | 260° |
| 2026-05-06 11:19 | 33.84444 | -118.28957 | 6766 ft | 286 kts | 261° |
| 2026-05-06 11:20 | 33.84083 | -118.31292 | 6498 ft | 282 kts | 261° |
| 2026-05-06 11:20 | 33.83734 | -118.33600 | 6231 ft | 278 kts | 261° |
| 2026-05-06 11:20 | 33.83391 | -118.35882 | 5897 ft | 277 kts | 261° |
| 2026-05-06 11:20 | 33.83052 | -118.38161 | 5541 ft | 276 kts | 261° |
| 2026-05-06 11:21 | 33.82717 | -118.40427 | 5203 ft | 275 kts | 261° |
| 2026-05-06 11:21 | 33.82386 | -118.42682 | 4860 ft | 273 kts | 261° |
| 2026-05-06 11:21 | 33.82060 | -118.44932 | 4500 ft | 272 kts | 261° |
| 2026-05-06 11:21 | 33.81740 | -118.47165 | 4138 ft | 267 kts | 261° |
| 2026-05-06 11:22 | 33.81439 | -118.49308 | 3758 ft | 253 kts | 261° |
| 2026-05-06 11:22 | 33.81157 | -118.51350 | 3389 ft | 242 kts | 261° |
| 2026-05-06 11:22 | 33.80890 | -118.53320 | 3051 ft | 239 kts | 261° |
| 2026-05-06 11:22 | 33.80779 | -118.55309 | 2883 ft | 239 kts | 279° |
| 2026-05-06 11:23 | 33.81429 | -118.57078 | 2709 ft | 229 kts | 311° |
| 2026-05-06 11:23 | 33.82595 | -118.58315 | 2551 ft | 220 kts | 326° |
| 2026-05-06 11:23 | 33.83978 | -118.59031 | 2377 ft | 216 kts | 346° |
| 2026-05-06 11:23 | 33.85425 | -118.59438 | 2217 ft | 209 kts | 351° |
| 2026-05-06 11:24 | 33.86829 | -118.59671 | 2035 ft | 199 kts | 354° |
| 2026-05-06 11:24 | 33.88174 | -118.59675 | 1886 ft | 189 kts | 19° |
| 2026-05-06 11:24 | 33.89319 | -118.58985 | 1841 ft | 183 kts | 31° |
| 2026-05-06 11:24 | 33.90430 | -118.58227 | 1807 ft | 183 kts | 30° |
| 2026-05-06 11:25 | 33.91436 | -118.57383 | 1779 ft | 174 kts | 53° |
| 2026-05-06 11:25 | 33.91857 | -118.56091 | 1818 ft | 165 kts | 78° |
| 2026-05-06 11:25 | 33.92109 | -118.54757 | 1810 ft | 163 kts | 76° |
| 2026-05-06 11:25 | 33.92359 | -118.53454 | 1791 ft | 159 kts | 80° |
| 2026-05-06 11:26 | 33.92527 | -118.52156 | 1820 ft | 154 kts | 83° |
| 2026-05-06 11:26 | 33.92664 | -118.50879 | 1593 ft | 149 kts | 83° |
| 2026-05-06 11:26 | 33.92785 | -118.49703 | 1406 ft | 134 kts | 83° |
| 2026-05-06 11:26 | 33.92895 | -118.48630 | 1251 ft | 128 kts | 83° |
| 2026-05-06 11:27 | 33.93004 | -118.47560 | 1066 ft | 129 kts | 83° |
| 2026-05-06 11:27 | 33.93112 | -118.46502 | 882 ft | 127 kts | 83° |
| 2026-05-06 11:27 | 33.93221 | -118.45449 | 704 ft | 127 kts | 82° |
| 2026-05-06 11:27 | 33.93329 | -118.44395 | 537 ft | 126 kts | 82° |
| 2026-05-06 11:28 | 33.93441 | -118.43349 | 333 ft | 124 kts | 82° |
| 2026-05-06 11:28 | 33.93545 | -118.42315 | 198 ft | 124 kts | 82° |
| 2026-05-06 11:28 | 33.93650 | -118.41278 | 103 ft | 120 kts | 82° |
| 2026-05-06 11:28 | 33.93737 | -118.40434 | 103 ft | 77 kts | 83° |
| 2026-05-06 11:29 | 33.93780 | -118.40018 | 103 ft | 25 kts | 83° |
| 2026-05-06 11:29 | 33.93821 | -118.39852 | 106 ft | 11 kts | 45° |
| 2026-05-06 11:29 | 33.93867 | -118.39820 | 102 ft | 0 kts | 22° |
| 2026-05-06 11:29 | 33.93873 | -118.39817 | 101 ft | 2 kts | 22° |
| 2026-05-06 11:30 | 33.93879 | -118.39814 | 102 ft | 1 kts | 22° |
| 2026-05-06 11:30 | 33.93888 | -118.39809 | 101 ft | 2 kts | 22° |
| 2026-05-06 11:30 | 33.93903 | -118.39804 | 100 ft | 3 kts | 11° |
| 2026-05-06 11:30 | 33.93922 | -118.39805 | 101 ft | 3 kts | 355° |
| 2026-05-06 11:31 | 33.93941 | -118.39807 | 101 ft | 3 kts | 355° |
| 2026-05-06 11:31 | 33.93960 | -118.39810 | 100 ft | 3 kts | 349° |
| 2026-05-06 11:31 | 33.93974 | -118.39826 | 99 ft | 3 kts | 295° |
| 2026-05-06 11:31 | 33.93974 | -118.39854 | 100 ft | 3 kts | 265° |
| 2026-05-06 11:32 | 33.93971 | -118.39894 | 99 ft | 6 kts | 265° |
| 2026-05-06 11:32 | 33.93966 | -118.39956 | 101 ft | 9 kts | 263° |
| 2026-05-06 11:32 | 33.93958 | -118.40038 | 98 ft | 11 kts | 263° |
| 2026-05-06 11:32 | 33.93945 | -118.40140 | 99 ft | 14 kts | 261° |
| 2026-05-06 11:33 | 33.93935 | -118.40264 | 100 ft | 16 kts | 265° |
| 2026-05-06 11:33 | 33.93923 | -118.40384 | 98 ft | 13 kts | 262° |
| 2026-05-06 11:33 | 33.93910 | -118.40496 | 99 ft | 13 kts | 262° |
| 2026-05-06 11:33 | 33.93902 | -118.40577 | 99 ft | 9 kts | 263° |
| 2026-05-06 11:34 | 33.93895 | -118.40650 | 101 ft | 9 kts | 263° |
| 2026-05-06 11:34 | 33.93888 | -118.40723 | 97 ft | 9 kts | 263° |
| 2026-05-06 11:34 | 33.93898 | -118.40792 | 101 ft | 9 kts | 314° |
| 2026-05-06 11:34 | 33.93956 | -118.40815 | 98 ft | 9 kts | 349° |
| 2026-05-06 11:35 | 33.94017 | -118.40825 | 99 ft | 9 kts | 353° |
| 2026-05-06 11:35 | 33.94069 | -118.40832 | 98 ft | 7 kts | 353° |
| 2026-05-06 11:35 | 33.94116 | -118.40838 | 98 ft | 7 kts | 353° |
| 2026-05-06 11:35 | 33.94151 | -118.40847 | 98 ft | 4 kts | 330° |
| 2026-05-06 11:36 | 33.94160 | -118.40881 | 99 ft | 4 kts | 269° |
| 2026-05-06 11:36 | 33.94157 | -118.40918 | 98 ft | 4 kts | 264° |
| 2026-05-06 11:36 | 33.94154 | -118.40946 | 100 ft | 1 kts | 263° |
| 2026-05-06 11:36 | 33.94153 | -118.40951 | 100 ft | 1 kts | 263° |
| 2026-05-06 11:37 | 33.94153 | -118.40954 | 100 ft | 0 kts | 263° |